Observation data for Big Lake on 02/14/2020      Previous  Date  Next       Current Mesonet Observations  Soil Data  Daily Summary Page  Observations in Plain Language
KBI1 140600Z 08008KT 01/M01 A3029 RMK A01 T00101005  RH  090%=      5-min Rain = 0
KBI1 140601Z 08008KT 01/M01 A3029 RMK A01 T00091005  RH  090%=      5-min Rain = 0
KBI1 140602Z 08010KT 01/M01 A3029 RMK A01 T00091005  RH  090%=      5-min Rain = 0
KBI1 140603Z 09008KT 01/M01 A3029 RMK A01 T00091006  RH  090%=      5-min Rain = 0
KBI1 140604Z 09008KT 01/M01 A3029 RMK A01 T00091006  RH  090%=      5-min Rain = 0
KBI1 140605Z 09007KT 01/M01 A3029 RMK A01 T00081006  RH  090%=      5-min Rain = 0
KBI1 140606Z 09007KT 01/M01 A3029 RMK A01 T00081006  RH  090%=      5-min Rain = 0
KBI1 140607Z 08009KT 01/M01 A3029 RMK A01 T00081006  RH  091%=      5-min Rain = 0
KBI1 140608Z 08008KT 01/M01 A3029 RMK A01 T00081006  RH  091%=      5-min Rain = 0
KBI1 140609Z 09008KT 01/M01 A3029 RMK A01 T00081006  RH  091%=      5-min Rain = 0
KBI1 140610Z 08010KT 01/M01 A3029 RMK A01 T00081006  RH  091%=      5-min Rain = 0
KBI1 140611Z 09009KT 01/M01 A3029 RMK A01 T00071006  RH  091%=      5-min Rain = 0
KBI1 140612Z 09009KT 01/M01 A3029 RMK A01 T00071006  RH  091%=      5-min Rain = 0
KBI1 140613Z 08010KT 01/M01 A3029 RMK A01 T00071006  RH  091%=      5-min Rain = 0
KBI1 140614Z 08011KT 01/M01 A3029 RMK A01 T00071006  RH  091%=      5-min Rain = 0
KBI1 140615Z 08009KT 01/M01 A3029 RMK A01 T00071006  RH  091%=      5-min Rain = 0
KBI1 140616Z 08009KT 01/M01 A3029 RMK A01 T00071006  RH  091%=      5-min Rain = 0
KBI1 140617Z 07010KT 01/M01 A3029 RMK A01 T00061006  RH  091%=      5-min Rain = 0
KBI1 140618Z 07008KT 01/M01 A3029 RMK A01 T00061006  RH  092%=      5-min Rain = 0
KBI1 140619Z 08007KT 01/M01 A3029 RMK A01 T00061006  RH  092%=      5-min Rain = 0
KBI1 140620Z 08008KT 01/M01 A3029 RMK A01 T00061006  RH  092%=      5-min Rain = 0
KBI1 140621Z 08011KT 01/M01 A3029 RMK A01 T00061006  RH  092%=      5-min Rain = 0
KBI1 140622Z 08009KT 01/M01 A3029 RMK A01 T00061006  RH  092%=      5-min Rain = 0
KBI1 140623Z 08008KT 01/M01 A3029 RMK A01 T00061007  RH  091%=      5-min Rain = 0
KBI1 140624Z 08007KT 01/M01 A3029 RMK A01 T00061006  RH  091%=      5-min Rain = 0
KBI1 140625Z 07007KT 01/M01 A3029 RMK A01 T00061007  RH  091%=      5-min Rain = 0
KBI1 140626Z 08008KT 01/M01 A3029 RMK A01 T00061006  RH  091%=      5-min Rain = 0
KBI1 140627Z 08009KT 01/M01 A3029 RMK A01 T00061007  RH  091%=      5-min Rain = 0
KBI1 140628Z 08010KT 01/M01 A3029 RMK A01 T00051007  RH  091%=      5-min Rain = 0
KBI1 140629Z 08008KT 01/M01 A3029 RMK A01 T00051007  RH  092%=      5-min Rain = 0
KBI1 140630Z 08008KT 01/M01 A3029 RMK A01 T00051007  RH  092%=      5-min Rain = 0
KBI1 140631Z 09008KT 01/M01 A3029 RMK A01 T00051007  RH  092%=      5-min Rain = 0
KBI1 140632Z 09008KT 01/M01 A3029 RMK A01 T00051007  RH  092%=      5-min Rain = 0
KBI1 140633Z 08009KT 01/M01 A3029 RMK A01 T00051006  RH  092%=      5-min Rain = 0
KBI1 140634Z 09008KT 01/M01 A3029 RMK A01 T00051006  RH  092%=      5-min Rain = 0
KBI1 140635Z 09007KT 01/M01 A3029 RMK A01 T00051006  RH  092%=      5-min Rain = 0
KBI1 140636Z 08006KT 01/M01 A3029 RMK A01 T00051006  RH  092%=      5-min Rain = 0
KBI1 140637Z 08006KT 01/M01 A3029 RMK A01 T00051006  RH  092%=      5-min Rain = 0
KBI1 140638Z 07006KT 01/M01 A3029 RMK A01 T00051006  RH  093%=      5-min Rain = 0
KBI1 140639Z 06007KT 01/M01 A3029 RMK A01 T00051006  RH  093%=      5-min Rain = 0
KBI1 140640Z 07007KT 00/M01 A3029 RMK A01 T00041006  RH  093%=      5-min Rain = 0
KBI1 140641Z 08008KT 01/M01 A3029 RMK A01 T00051006  RH  093%=      5-min Rain = 0
KBI1 140642Z 08007KT 00/M01 A3029 RMK A01 T00041006  RH  093%=      5-min Rain = 0
KBI1 140643Z 09008KT 01/M01 A3029 RMK A01 T00051005  RH  093%=      5-min Rain = 0
KBI1 140644Z 08008KT 01/M01 A3029 RMK A01 T00051005  RH  093%=      5-min Rain = 0
KBI1 140645Z 08008KT 01/M01 A3029 RMK A01 T00051005  RH  093%=      5-min Rain = 0
KBI1 140646Z 08007KT 01/M01 A3029 RMK A01 T00051005  RH  093%=      5-min Rain = 0
KBI1 140647Z 08007KT 01/M01 A3029 RMK A01 T00051005  RH  093%=      5-min Rain = 0
KBI1 140648Z 09006KT 01/M01 A3029 RMK A01 T00051005  RH  093%=      5-min Rain = 0
KBI1 140649Z 08009KT 01/M01 A3029 RMK A01 T00051005  RH  093%=      5-min Rain = 0
KBI1 140650Z 08012KT 01/M01 A3029 RMK A01 T00051005  RH  093%=      5-min Rain = 0
KBI1 140651Z 09010KT 01/M00 A3029 RMK A01 T00061004  RH  093%=      5-min Rain = 0
KBI1 140652Z 09008KT 01/M00 A3029 RMK A01 T00061004  RH  093%=      5-min Rain = 0
KBI1 140653Z 10008KT 01/M00 A3029 RMK A01 T00071004  RH  093%=      5-min Rain = 0
KBI1 140654Z 10007G12KT 01/M00 A3029 RMK A01 T00061004  RH  093%=      5-min Rain = 0
KBI1 140655Z 10009KT 01/M00 A3029 RMK A01 T00061004  RH  093%=      5-min Rain = 0
KBI1 140656Z 09009KT 01/M00 A3029 RMK A01 T00061004  RH  093%=      5-min Rain = 0
KBI1 140657Z 10008KT 01/M00 A3029 RMK A01 T00061004  RH  093%=      5-min Rain = 0
KBI1 140658Z 09007KT 01/M00 A3029 RMK A01 T00071004  RH  093%=      5-min Rain = 0
KBI1 140659Z 09010KT 01/M00 A3029 RMK A01 T00071004  RH  093%=      5-min Rain = 0
KBI1 140700Z 09011KT 01/M00 A3029 RMK A01 T00071004  RH  093%=      5-min Rain = 0
KBI1 140701Z 09010KT 01/M00 A3029 RMK A01 T00071004  RH  093%=      5-min Rain = 0
KBI1 140702Z 10010KT 01/M00 A3029 RMK A01 T00071004  RH  093%=      5-min Rain = 0
KBI1 140703Z 09010KT 01/M00 A3029 RMK A01 T00071004  RH  093%=      5-min Rain = 0
KBI1 140704Z 09010KT 01/M00 A3029 RMK A01 T00071004  RH  093%=      5-min Rain = 0
KBI1 140705Z 09006KT 01/M00 A3029 RMK A01 T00071003  RH  093%=      5-min Rain = 0
KBI1 140706Z 10009KT 01/M00 A3029 RMK A01 T00071003  RH  093%=      5-min Rain = 0
KBI1 140707Z 08007KT 01/M00 A3029 RMK A01 T00071003  RH  093%=      5-min Rain = 0
KBI1 140708Z 08007KT 01/M00 A3029 RMK A01 T00071003  RH  093%=      5-min Rain = 0
KBI1 140709Z 08009KT 01/M00 A3029 RMK A01 T00071003  RH  093%=      5-min Rain = 0
KBI1 140710Z 08007KT 01/M00 A3029 RMK A01 T00071003  RH  093%=      5-min Rain = 0
KBI1 140711Z 08010KT 01/M00 A3029 RMK A01 T00071004  RH  093%=      5-min Rain = 0
KBI1 140712Z 09010KT 01/M00 A3029 RMK A01 T00071003  RH  093%=      5-min Rain = 0
KBI1 140713Z 08009KT 01/M00 A3029 RMK A01 T00071003  RH  093%=      5-min Rain = 0
KBI1 140714Z 08007KT 01/M00 A3029 RMK A01 T00071003  RH  093%=      5-min Rain = 0
KBI1 140715Z 09008KT 01/M00 A3029 RMK A01 T00071003  RH  093%=      5-min Rain = 0
KBI1 140716Z 09011KT 01/M00 A3029 RMK A01 T00071003  RH  093%=      5-min Rain = 0
KBI1 140717Z 09010KT 01/M00 A3029 RMK A01 T00071003  RH  093%=      5-min Rain = 0
KBI1 140718Z 10011KT 01/M00 A3029 RMK A01 T00071004  RH  093%=      5-min Rain = 0
KBI1 140719Z 09009KT 01/M00 A3029 RMK A01 T00061004  RH  093%=      5-min Rain = 0
KBI1 140720Z 09011KT 01/M00 A3029 RMK A01 T00061004  RH  093%=      5-min Rain = 0
KBI1 140721Z 09009KT 01/M00 A3029 RMK A01 T00061004  RH  093%=      5-min Rain = 0
KBI1 140722Z 10009KT 01/M00 A3029 RMK A01 T00061004  RH  093%=      5-min Rain = 0
KBI1 140723Z 09007KT 01/M00 A3029 RMK A01 T00051004  RH  093%=      5-min Rain = 0
KBI1 140724Z 08010KT 01/M00 A3029 RMK A01 T00051004  RH  093%=      5-min Rain = 0
KBI1 140725Z 09010KT 01/M00 A3029 RMK A01 T00051004  RH  093%=      5-min Rain = 0
KBI1 140726Z 09011KT 01/M00 A3029 RMK A01 T00051004  RH  093%=      5-min Rain = 0
KBI1 140727Z 10009KT 01/M01 A3029 RMK A01 T00051005  RH  093%=      5-min Rain = 0
KBI1 140728Z 09010KT 01/M01 A3029 RMK A01 T00051005  RH  093%=      5-min Rain = 0
KBI1 140729Z 09011KT 01/M01 A3029 RMK A01 T00051005  RH  093%=      5-min Rain = 0
KBI1 140730Z 09012KT 00/M01 A3029 RMK A01 T00041005  RH  094%=      5-min Rain = 0
KBI1 140731Z 08012KT 00/M01 A3029 RMK A01 T00041005  RH  094%=      5-min Rain = 0
KBI1 140732Z 09010KT 00/M01 A3029 RMK A01 T00041005  RH  094%=      5-min Rain = 0
KBI1 140733Z 09009KT 00/M01 A3029 RMK A01 T00041005  RH  094%=      5-min Rain = 0
KBI1 140734Z 10007KT 00/M01 A3029 RMK A01 T00041005  RH  094%=      5-min Rain = 0
KBI1 140735Z 10009KT 00/M01 A3029 RMK A01 T00041005  RH  094%=      5-min Rain = 0
KBI1 140736Z 09012KT 00/M01 A3029 RMK A01 T00041005  RH  094%=      5-min Rain = 0
KBI1 140737Z 10009KT 00/M01 A3029 RMK A01 T00041005  RH  094%=      5-min Rain = 0
KBI1 140738Z 09007KT 00/M01 A3029 RMK A01 T00041005  RH  094%=      5-min Rain = 0
KBI1 140739Z 10009KT 00/M01 A3029 RMK A01 T00041005  RH  094%=      5-min Rain = 0
KBI1 140740Z 10010KT 00/M01 A3029 RMK A01 T00041005  RH  094%=      5-min Rain = 0
KBI1 140741Z 10013KT 00/M01 A3029 RMK A01 T00041005  RH  094%=      5-min Rain = 0
KBI1 140742Z 10009KT 00/M01 A3029 RMK A01 T00031005  RH  094%=      5-min Rain = 0
KBI1 140743Z 10009KT 00/M01 A3029 RMK A01 T00031005  RH  094%=      5-min Rain = 0
KBI1 140744Z 10010KT 00/M01 A3029 RMK A01 T00031005  RH  094%=      5-min Rain = 0
KBI1 140745Z 11008KT 00/M01 A3029 RMK A01 T00031005  RH  094%=      5-min Rain = 0
KBI1 140746Z 10008KT 00/M01 A3029 RMK A01 T00031005  RH  094%=      5-min Rain = 0
KBI1 140747Z 11007KT 00/M01 A3029 RMK A01 T00031005  RH  094%=      5-min Rain = 0
KBI1 140748Z 09007KT 00/M01 A3029 RMK A01 T00031005  RH  094%=      5-min Rain = 0
KBI1 140749Z 10011KT 00/M01 A3029 RMK A01 T00031005  RH  094%=      5-min Rain = 0
KBI1 140750Z 10010KT 00/M01 A3029 RMK A01 T00031005  RH  094%=      5-min Rain = 0
KBI1 140751Z 09008KT 00/M01 A3029 RMK A01 T00031005  RH  094%=      5-min Rain = 0
KBI1 140752Z 09010KT 00/M01 A3029 RMK A01 T00031005  RH  094%=      5-min Rain = 0
KBI1 140753Z 10008KT 00/M01 A3029 RMK A01 T00031005  RH  094%=      5-min Rain = 0
KBI1 140754Z 09007KT 00/M01 A3029 RMK A01 T00031005  RH  094%=      5-min Rain = 0
KBI1 140755Z 10006KT 00/M01 A3029 RMK A01 T00031005  RH  095%=      5-min Rain = 0
KBI1 140756Z 10007KT 00/M01 A3029 RMK A01 T00031005  RH  095%=      5-min Rain = 0
KBI1 140757Z 11011KT 00/M01 A3029 RMK A01 T00031005  RH  095%=      5-min Rain = 0
KBI1 140758Z 11010KT 00/M01 A3029 RMK A01 T00031005  RH  094%=      5-min Rain = 0
KBI1 140759Z 10011KT 00/M01 A3029 RMK A01 T00021006  RH  094%=      5-min Rain = 0
KBI1 140800Z 10010KT 00/M01 A3029 RMK A01 T00021006  RH  094%=      5-min Rain = 0
KBI1 140801Z 10009KT 00/M01 A3029 RMK A01 T00021005  RH  095%=      5-min Rain = 0
KBI1 140802Z 10010KT 00/M01 A3029 RMK A01 T00021005  RH  095%=      5-min Rain = 0
KBI1 140803Z 10010KT 00/M01 A3029 RMK A01 T00021005  RH  095%=      5-min Rain = 0
KBI1 140804Z 10011KT 00/M01 A3029 RMK A01 T00021005  RH  095%=      5-min Rain = 0
KBI1 140805Z 10010KT 00/M01 A3029 RMK A01 T00021006  RH  095%=      5-min Rain = 0
KBI1 140806Z 10011KT 00/M01 A3029 RMK A01 T00021005  RH  095%=      5-min Rain = 0
KBI1 140807Z 10008KT 00/M01 A3029 RMK A01 T00021005  RH  095%=      5-min Rain = 0
KBI1 140808Z 10008KT 00/M01 A3029 RMK A01 T00021005  RH  095%=      5-min Rain = 0
KBI1 140809Z 09008KT 00/M01 A3029 RMK A01 T00021005  RH  095%=      5-min Rain = 0
KBI1 140810Z 10009KT 00/M01 A3029 RMK A01 T00021005  RH  095%=      5-min Rain = 0
KBI1 140811Z 10007KT 00/M01 A3029 RMK A01 T00021005  RH  095%=      5-min Rain = 0
KBI1 140812Z 10007KT 00/M01 A3029 RMK A01 T00021005  RH  095%=      5-min Rain = 0
KBI1 140813Z 09009KT 00/M01 A3029 RMK A01 T00021005  RH  095%=      5-min Rain = 0
KBI1 140814Z 09009KT 00/M01 A3029 RMK A01 T00021005  RH  095%=      5-min Rain = 0
KBI1 140815Z 09011KT 00/M01 A3029 RMK A01 T00021005  RH  095%=      5-min Rain = 0
KBI1 140816Z 10010KT 00/M01 A3029 RMK A01 T00021005  RH  095%=      5-min Rain = 0
KBI1 140817Z 11010KT 00/M01 A3029 RMK A01 T00021005  RH  095%=      5-min Rain = 0
KBI1 140818Z 11007KT 00/M01 A3029 RMK A01 T00021005  RH  095%=      5-min Rain = 0
KBI1 140819Z 11009KT 00/M01 A3029 RMK A01 T00021005  RH  095%=      5-min Rain = 0
KBI1 140820Z 10009KT 00/M01 A3029 RMK A01 T00021005  RH  095%=      5-min Rain = 0
KBI1 140821Z 10011KT 00/M01 A3029 RMK A01 T00021005  RH  095%=      5-min Rain = 0
KBI1 140822Z 11009KT 00/M01 A3029 RMK A01 T00021005  RH  095%=      5-min Rain = 0
KBI1 140823Z 11007KT 00/M01 A3029 RMK A01 T00021005  RH  095%=      5-min Rain = 0
KBI1 140824Z 10008KT 00/M01 A3029 RMK A01 T00021005  RH  095%=      5-min Rain = 0
KBI1 140825Z 10008KT 00/M01 A3029 RMK A01 T00021005  RH  095%=      5-min Rain = 0
KBI1 140826Z 10007KT 00/M01 A3029 RMK A01 T00021005  RH  095%=      5-min Rain = 0
KBI1 140827Z 10009KT 00/M01 A3029 RMK A01 T00021005  RH  095%=      5-min Rain = 0
KBI1 140828Z 10008KT 00/M01 A3029 RMK A01 T00021005  RH  095%=      5-min Rain = 0
KBI1 140829Z 10008KT 00/M01 A3029 RMK A01 T00021005  RH  095%=      5-min Rain = 0
KBI1 140830Z 10010KT 00/M01 A3029 RMK A01 T00021005  RH  095%=      5-min Rain = 0
KBI1 140831Z 10009KT 00/M01 A3029 RMK A01 T00021005  RH  095%=      5-min Rain = 0
KBI1 140832Z 11008KT 00/M01 A3029 RMK A01 T00011005  RH  095%=      5-min Rain = 0
KBI1 140833Z 11008KT 00/M01 A3029 RMK A01 T00011005  RH  096%=      5-min Rain = 0
KBI1 140834Z 10007KT 00/M01 A3029 RMK A01 T00021005  RH  096%=      5-min Rain = 0
KBI1 140835Z 10010KT 00/M00 A3029 RMK A01 T00021004  RH  096%=      5-min Rain = 0
KBI1 140836Z 10007KT 00/M01 A3029 RMK A01 T00021005  RH  095%=      5-min Rain = 0
KBI1 140837Z 10008KT 00/M01 A3029 RMK A01 T00021005  RH  095%=      5-min Rain = 0
KBI1 140838Z 10009KT 00/M00 A3029 RMK A01 T00021004  RH  096%=      5-min Rain = 0
KBI1 140839Z 10010KT 00/M00 A3028 RMK A01 T00021004  RH  095%=      5-min Rain = 0
KBI1 140840Z 11007KT 00/M01 A3028 RMK A01 T00021005  RH  095%=      5-min Rain = 0
KBI1 140841Z 11008KT 00/M00 A3028 RMK A01 T00021004  RH  095%=      5-min Rain = 0
KBI1 140842Z 10008KT 00/M00 A3028 RMK A01 T00021004  RH  095%=      5-min Rain = 0
KBI1 140843Z 10008KT 00/M00 A3028 RMK A01 T00021004  RH  095%=      5-min Rain = 0
KBI1 140844Z 11007KT 00/M00 A3028 RMK A01 T00021004  RH  095%=      5-min Rain = 0
KBI1 140845Z 11010KT 00/M00 A3028 RMK A01 T00021004  RH  095%=      5-min Rain = 0
KBI1 140846Z 11010KT 00/M00 A3028 RMK A01 T00021004  RH  095%=      5-min Rain = 0
KBI1 140847Z 11010KT 00/M00 A3028 RMK A01 T00021004  RH  095%=      5-min Rain = 0
KBI1 140848Z 11007KT 00/M01 A3028 RMK A01 T00021005  RH  095%=      5-min Rain = 0
KBI1 140849Z 12007KT 00/M00 A3028 RMK A01 T00021004  RH  095%=      5-min Rain = 0
KBI1 140850Z 11007KT 00/M00 A3028 RMK A01 T00021004  RH  095%=      5-min Rain = 0
KBI1 140851Z 11007KT 00/M00 A3028 RMK A01 T00021004  RH  095%=      5-min Rain = 0
KBI1 140852Z 11007KT 00/M00 A3028 RMK A01 T00021004  RH  095%=      5-min Rain = 0
KBI1 140853Z 10009KT 00/M00 A3028 RMK A01 T00031004  RH  095%=      5-min Rain = 0
KBI1 140854Z 10008KT 00/M00 A3028 RMK A01 T00021004  RH  095%=      5-min Rain = 0
KBI1 140855Z 10007KT 00/M00 A3028 RMK A01 T00021004  RH  095%=      5-min Rain = 0
KBI1 140856Z 10008KT 00/M00 A3028 RMK A01 T00021004  RH  095%=      5-min Rain = 0
KBI1 140857Z 10009KT 00/M00 A3028 RMK A01 T00021004  RH  095%=      5-min Rain = 0
KBI1 140858Z 10009KT 00/M00 A3028 RMK A01 T00021004  RH  095%=      5-min Rain = 0
KBI1 140859Z 10010KT 00/M00 A3028 RMK A01 T00021004  RH  095%=      5-min Rain = 0
KBI1 140900Z 10007KT 00/M00 A3028 RMK A01 T00021004  RH  095%=      5-min Rain = 0
KBI1 140901Z 09008KT 00/M00 A3028 RMK A01 T00021004  RH  095%=      5-min Rain = 0
KBI1 140902Z 10007KT 00/M00 A3028 RMK A01 T00021004  RH  095%=      5-min Rain = 0
KBI1 140903Z 10008KT 00/M00 A3028 RMK A01 T00021004  RH  095%=      5-min Rain = 0
KBI1 140904Z 10009KT 00/M00 A3028 RMK A01 T00031004  RH  095%=      5-min Rain = 0
KBI1 140905Z 11010KT 00/M00 A3028 RMK A01 T00031004  RH  095%=      5-min Rain = 0
KBI1 140906Z 10008KT 00/M00 A3028 RMK A01 T00021004  RH  095%=      5-min Rain = 0
KBI1 140907Z 10008KT 00/M00 A3028 RMK A01 T00031004  RH  095%=      5-min Rain = 0
KBI1 140908Z 10009KT 00/M00 A3028 RMK A01 T00031004  RH  095%=      5-min Rain = 0
KBI1 140909Z 11009KT 00/M00 A3028 RMK A01 T00031004  RH  095%=      5-min Rain = 0
KBI1 140910Z 10007KT 00/M00 A3028 RMK A01 T00031004  RH  095%=      5-min Rain = 0
KBI1 140911Z 11007KT 00/M00 A3028 RMK A01 T00031004  RH  095%=      5-min Rain = 0
KBI1 140912Z 11008KT 00/M00 A3028 RMK A01 T00031004  RH  095%=      5-min Rain = 0
KBI1 140913Z 11007KT 00/M00 A3028 RMK A01 T00031004  RH  095%=      5-min Rain = 0
KBI1 140914Z 11007KT 00/M00 A3028 RMK A01 T00031004  RH  095%=      5-min Rain = 0
KBI1 140915Z 11009KT 00/M00 A3028 RMK A01 T00031004  RH  095%=      5-min Rain = 0
KBI1 140916Z 11007KT 00/M00 A3028 RMK A01 T00031004  RH  095%=      5-min Rain = 0
KBI1 140917Z 10007KT 00/M00 A3028 RMK A01 T00031004  RH  095%=      5-min Rain = 0
KBI1 140918Z 09008KT 00/M00 A3028 RMK A01 T00031004  RH  095%=      5-min Rain = 0
KBI1 140919Z 10007KT 00/M00 A3028 RMK A01 T00031004  RH  095%=      5-min Rain = 0
KBI1 140920Z 11008KT 00/M00 A3028 RMK A01 T00031004  RH  095%=      5-min Rain = 0
KBI1 140921Z 10008KT 00/M00 A3028 RMK A01 T00031004  RH  095%=      5-min Rain = 0
KBI1 140922Z 10007KT 00/M00 A3028 RMK A01 T00031004  RH  095%=      5-min Rain = 0
KBI1 140923Z 10007KT 00/M00 A3028 RMK A01 T00031004  RH  095%=      5-min Rain = 0
KBI1 140924Z 11005KT 00/M00 A3028 RMK A01 T00031004  RH  095%=      5-min Rain = 0
KBI1 140925Z 11009KT 00/M00 A3028 RMK A01 T00031004  RH  095%=      5-min Rain = 0
KBI1 140926Z 11007KT 00/M00 A3028 RMK A01 T00031004  RH  095%=      5-min Rain = 0
KBI1 140927Z 10008KT 00/M00 A3028 RMK A01 T00031004  RH  095%=      5-min Rain = 0
KBI1 140928Z 11008KT 00/M01 A3028 RMK A01 T00021005  RH  095%=      5-min Rain = 0
KBI1 140929Z 10007KT 00/M01 A3028 RMK A01 T00021005  RH  095%=      5-min Rain = 0
KBI1 140930Z 09008KT 00/M00 A3028 RMK A01 T00021004  RH  095%=      5-min Rain = 0
KBI1 140931Z 10010KT 00/M00 A3028 RMK A01 T00021004  RH  095%=      5-min Rain = 0
KBI1 140932Z 10009KT 00/M01 A3028 RMK A01 T00021005  RH  095%=      5-min Rain = 0
KBI1 140933Z 10008KT 00/M01 A3028 RMK A01 T00021005  RH  095%=      5-min Rain = 0
KBI1 140934Z 10008KT 00/M01 A3028 RMK A01 T00021005  RH  095%=      5-min Rain = 0
KBI1 140935Z 11006KT 00/M00 A3028 RMK A01 T00021004  RH  095%=      5-min Rain = 0
KBI1 140936Z 11007KT 00/M00 A3028 RMK A01 T00021004  RH  095%=      5-min Rain = 0
KBI1 140937Z 11006KT 00/M00 A3028 RMK A01 T00021004  RH  095%=      5-min Rain = 0
KBI1 140938Z 11005KT 00/M00 A3028 RMK A01 T00021004  RH  095%=      5-min Rain = 0
KBI1 140939Z 11005KT 00/M00 A3028 RMK A01 T00031004  RH  095%=      5-min Rain = 0
KBI1 140940Z 12005KT 00/M00 A3028 RMK A01 T00031004  RH  095%=      5-min Rain = 0
KBI1 140941Z 12008KT 00/M00 A3028 RMK A01 T00031004  RH  095%=      5-min Rain = 0
KBI1 140942Z 11007KT 00/M00 A3028 RMK A01 T00031004  RH  095%=      5-min Rain = 0
KBI1 140943Z 11007KT 00/M01 A3028 RMK A01 T00021005  RH  095%=      5-min Rain = 0
KBI1 140944Z 12005KT 00/M01 A3028 RMK A01 T00021005  RH  095%=      5-min Rain = 0
KBI1 140945Z 11005KT 00/M01 A3028 RMK A01 T00021005  RH  095%=      5-min Rain = 0
KBI1 140946Z 10006KT 00/M00 A3028 RMK A01 T00021004  RH  095%=      5-min Rain = 0
KBI1 140947Z 12006KT 00/M00 A3028 RMK A01 T00021004  RH  095%=      5-min Rain = 0
KBI1 140948Z 11006KT 00/M01 A3028 RMK A01 T00021005  RH  095%=      5-min Rain = 0
KBI1 140949Z 11005KT 00/M01 A3028 RMK A01 T00021005  RH  095%=      5-min Rain = 0
KBI1 140950Z 10008KT 00/M00 A3028 RMK A01 T00021004  RH  095%=      5-min Rain = 0
KBI1 140951Z 10009KT 00/M01 A3028 RMK A01 T00021005  RH  095%=      5-min Rain = 0
KBI1 140952Z 10006KT 00/M01 A3028 RMK A01 T00021005  RH  095%=      5-min Rain = 0
KBI1 140953Z 12006KT 00/M01 A3028 RMK A01 T00011005  RH  095%=      5-min Rain = 0
KBI1 140954Z 12007KT 00/M01 A3029 RMK A01 T00011006  RH  095%=      5-min Rain = 0
KBI1 140955Z 11010KT 00/M01 A3029 RMK A01 T00021005  RH  096%=      5-min Rain = 0
KBI1 140956Z 11009KT 00/M01 A3029 RMK A01 T00011005  RH  096%=      5-min Rain = 0
KBI1 140957Z 11009KT 00/M01 A3028 RMK A01 T00011005  RH  096%=      5-min Rain = 0
KBI1 140958Z 11007KT 00/M01 A3028 RMK A01 T00011005  RH  096%=      5-min Rain = 0
KBI1 140959Z 12007KT 00/M01 A3028 RMK A01 T00011005  RH  096%=      5-min Rain = 0
KBI1 141000Z 12007KT 00/M01 A3028 RMK A01 T00011005  RH  096%=      5-min Rain = 0
KBI1 141001Z 11007KT 00/M01 A3028 RMK A01 T00011005  RH  096%=      5-min Rain = 0
KBI1 141002Z 12007KT 00/M01 A3028 RMK A01 T00011005  RH  096%=      5-min Rain = 0
KBI1 141003Z 12006KT 00/M01 A3028 RMK A01 T00021005  RH  096%=      5-min Rain = 0
KBI1 141004Z 12009KT 00/M01 A3028 RMK A01 T00011005  RH  096%=      5-min Rain = 0
KBI1 141005Z 11009KT 00/M01 A3028 RMK A01 T00011005  RH  096%=      5-min Rain = 0
KBI1 141006Z 11008KT 00/M01 A3028 RMK A01 T00011005  RH  096%=      5-min Rain = 0
KBI1 141007Z 12006KT 00/M01 A3028 RMK A01 T00011005  RH  096%=      5-min Rain = 0
KBI1 141008Z 11006KT 00/M01 A3028 RMK A01 T00011005  RH  096%=      5-min Rain = 0
KBI1 141009Z 12005KT 00/M01 A3028 RMK A01 T00011005  RH  096%=      5-min Rain = 0
KBI1 141010Z 11007KT 00/M01 A3028 RMK A01 T00011005  RH  096%=      5-min Rain = 0
KBI1 141011Z 11008KT 00/M00 A3028 RMK A01 T00011004  RH  096%=      5-min Rain = 0
KBI1 141012Z 11007KT 00/M01 A3028 RMK A01 T00011005  RH  096%=      5-min Rain = 0
KBI1 141013Z 11007KT 00/M01 A3028 RMK A01 T00011005  RH  096%=      5-min Rain = 0
KBI1 141014Z 12007KT 00/M01 A3028 RMK A01 T00011005  RH  096%=      5-min Rain = 0
KBI1 141015Z 12007KT 00/M01 A3028 RMK A01 T00011005  RH  096%=      5-min Rain = 0
KBI1 141016Z 12007KT 00/M01 A3028 RMK A01 T00011005  RH  096%=      5-min Rain = 0
KBI1 141017Z 13006KT 00/M01 A3028 RMK A01 T00011005  RH  096%=      5-min Rain = 0
KBI1 141018Z 12007KT 00/M01 A3028 RMK A01 T00011005  RH  096%=      5-min Rain = 0
KBI1 141019Z 12008KT 00/M01 A3028 RMK A01 T00011005  RH  096%=      5-min Rain = 0
KBI1 141020Z 12007KT 00/M01 A3028 RMK A01 T00011005  RH  096%=      5-min Rain = 0
KBI1 141021Z 11009KT 00/M01 A3028 RMK A01 T00021005  RH  096%=      5-min Rain = 0
KBI1 141022Z 12008KT 00/M01 A3028 RMK A01 T00011005  RH  096%=      5-min Rain = 0
KBI1 141023Z 11006KT 00/M00 A3028 RMK A01 T00021004  RH  096%=      5-min Rain = 0
KBI1 141024Z 11008KT 00/M01 A3028 RMK A01 T00011005  RH  096%=      5-min Rain = 0
KBI1 141025Z 11007KT 00/M01 A3028 RMK A01 T00011005  RH  096%=      5-min Rain = 0
KBI1 141026Z 12004KT 00/M01 A3028 RMK A01 T00011005  RH  096%=      5-min Rain = 0
KBI1 141027Z 12005KT 00/M00 A3028 RMK A01 T00021004  RH  096%=      5-min Rain = 0
KBI1 141028Z 13009KT 00/M01 A3028 RMK A01 T00011005  RH  096%=      5-min Rain = 0
KBI1 141029Z 12009KT 00/M01 A3028 RMK A01 T00011005  RH  096%=      5-min Rain = 0
KBI1 141030Z 13007KT 00/M01 A3028 RMK A01 T00011005  RH  096%=      5-min Rain = 0
KBI1 141031Z 12007KT 00/01 A3028 RMK A01 T000000-6  RH  096%=      5-min Rain = 0
KBI1 141032Z 13007KT 00/01 A3028 RMK A01 T000000-6  RH  096%=      5-min Rain = 0
KBI1 141033Z 12007KT 00/M01 A3028 RMK A01 T00011005  RH  096%=      5-min Rain = 0
KBI1 141034Z 13006KT 00/01 A3028 RMK A01 T000000-6  RH  096%=      5-min Rain = 0
KBI1 141035Z 13006KT 00/01 A3028 RMK A01 T000000-5  RH  096%=      5-min Rain = 0
KBI1 141036Z 12005KT 00/01 A3028 RMK A01 T000000-6  RH  096%=      5-min Rain = 0
KBI1 141037Z 12007KT 00/M01 A3028 RMK A01 T00011005  RH  096%=      5-min Rain = 0
KBI1 141038Z 11006KT 00/M01 A3028 RMK A01 T00011005  RH  096%=      5-min Rain = 0
KBI1 141039Z 11005KT 00/M01 A3028 RMK A01 T00011005  RH  096%=      5-min Rain = 0
KBI1 141040Z 12007KT 00/M01 A3028 RMK A01 T00011005  RH  096%=      5-min Rain = 0
KBI1 141041Z 10006KT 00/01 A3028 RMK A01 T000000-5  RH  096%=      5-min Rain = 0
KBI1 141042Z 10005KT 00/01 A3028 RMK A01 T000000-5  RH  096%=      5-min Rain = 0
KBI1 141043Z 11005KT 00/01 A3028 RMK A01 T000000-5  RH  096%=      5-min Rain = 0
KBI1 141044Z 11008KT 00/01 A3028 RMK A01 T000000-6  RH  096%=      5-min Rain = 0
KBI1 141045Z 11006KT 00/01 A3028 RMK A01 T00-000-6  RH  096%=      5-min Rain = 0
KBI1 141046Z 12006KT M00/M01 A3028 RMK A01 T10011006  RH  096%=      5-min Rain = 0
KBI1 141047Z 10007KT M00/M01 A3028 RMK A01 T10011006  RH  096%=      5-min Rain = 0
KBI1 141048Z 11008KT M00/M01 A3028 RMK A01 T10011006  RH  096%=      5-min Rain = 0
KBI1 141049Z 13007KT M00/M01 A3028 RMK A01 T10011007  RH  096%=      5-min Rain = 0
KBI1 141050Z 12008KT M00/M01 A3028 RMK A01 T10021007  RH  096%=      5-min Rain = 0
KBI1 141051Z 12008KT M00/M01 A3028 RMK A01 T10021007  RH  096%=      5-min Rain = 0
KBI1 141052Z 13006KT M00/M01 A3028 RMK A01 T10021007  RH  097%=      5-min Rain = 0
KBI1 141053Z 13007KT M00/M01 A3028 RMK A01 T10021007  RH  097%=      5-min Rain = 0
KBI1 141054Z 13008KT M00/M01 A3028 RMK A01 T10031007  RH  097%=      5-min Rain = 0
KBI1 141055Z 13008KT M00/M01 A3028 RMK A01 T10031007  RH  097%=      5-min Rain = 0
KBI1 141056Z 12005KT M00/M01 A3028 RMK A01 T10021006  RH  097%=      5-min Rain = 0
KBI1 141057Z 12008KT M00/M01 A3028 RMK A01 T10021006  RH  097%=      5-min Rain = 0
KBI1 141058Z 12009KT M00/M01 A3028 RMK A01 T10021006  RH  097%=      5-min Rain = 0
KBI1 141059Z 11007KT M00/M01 A3028 RMK A01 T10021006  RH  097%=      5-min Rain = 0
KBI1 141100Z 12007KT M00/M01 A3028 RMK A01 T10021006  RH  097%=      5-min Rain = 0
KBI1 141101Z 12007KT M00/M01 A3028 RMK A01 T10021006  RH  097%=      5-min Rain = 0
KBI1 141102Z 12009KT M00/M01 A3028 RMK A01 T10021006  RH  097%=      5-min Rain = 0
KBI1 141103Z 12009KT M00/M01 A3028 RMK A01 T10021006  RH  097%=      5-min Rain = 0
KBI1 141104Z 12007KT M00/M01 A3028 RMK A01 T10021006  RH  097%=      5-min Rain = 0
KBI1 141105Z 12008KT M00/M01 A3028 RMK A01 T10021006  RH  097%=      5-min Rain = 0
KBI1 141106Z 12007KT M00/M01 A3028 RMK A01 T10021006  RH  097%=      5-min Rain = 0
KBI1 141107Z 13007KT M00/M01 A3028 RMK A01 T10021006  RH  097%=      5-min Rain = 0
KBI1 141108Z 13007KT M00/M01 A3028 RMK A01 T10021006  RH  097%=      5-min Rain = 0
KBI1 141109Z 13005KT M00/M01 A3028 RMK A01 T10021006  RH  097%=      5-min Rain = 0
KBI1 141110Z 12006KT M00/M01 A3028 RMK A01 T10021006  RH  097%=      5-min Rain = 0
KBI1 141111Z 11006KT M00/M01 A3028 RMK A01 T10031006  RH  097%=      5-min Rain = 0
KBI1 141112Z 11007KT M00/M01 A3028 RMK A01 T10021006  RH  097%=      5-min Rain = 0
KBI1 141113Z 12005KT M00/M01 A3028 RMK A01 T10021006  RH  098%=      5-min Rain = 0
KBI1 141114Z 13003KT M00/M01 A3028 RMK A01 T10021006  RH  098%=      5-min Rain = 0
KBI1 141115Z 13005KT M00/M01 A3028 RMK A01 T10021005  RH  098%=      5-min Rain = 0
KBI1 141116Z 11006KT M00/M01 A3028 RMK A01 T10021005  RH  098%=      5-min Rain = 0
KBI1 141117Z 11005KT M00/M01 A3028 RMK A01 T10021005  RH  098%=      5-min Rain = 0
KBI1 141118Z 11006KT M00/M01 A3028 RMK A01 T10021005  RH  098%=      5-min Rain = 0
KBI1 141119Z 11009KT M00/M01 A3028 RMK A01 T10011005  RH  098%=      5-min Rain = 0
KBI1 141120Z 11007KT M00/M01 A3028 RMK A01 T10021006  RH  098%=      5-min Rain = 0
KBI1 141121Z 11007KT M00/M01 A3028 RMK A01 T10021006  RH  098%=      5-min Rain = 0
KBI1 141122Z 10007KT M00/M01 A3028 RMK A01 T10021006  RH  098%=      5-min Rain = 0
KBI1 141123Z 11007KT M00/M01 A3028 RMK A01 T10031006  RH  098%=      5-min Rain = 0
KBI1 141124Z 11006KT M00/M01 A3028 RMK A01 T10031006  RH  098%=      5-min Rain = 0
KBI1 141125Z 12006KT M00/M01 A3028 RMK A01 T10031006  RH  098%=      5-min Rain = 0
KBI1 141126Z 12007KT M00/M01 A3028 RMK A01 T10031006  RH  098%=      5-min Rain = 0
KBI1 141127Z 12008KT M00/M01 A3028 RMK A01 T10031006  RH  098%=      5-min Rain = 0
KBI1 141128Z 12007KT M00/M01 A3028 RMK A01 T10031006  RH  098%=      5-min Rain = 0
KBI1 141129Z 12008KT M00/M01 A3028 RMK A01 T10031006  RH  098%=      5-min Rain = 0
KBI1 141130Z 12006KT M00/M01 A3028 RMK A01 T10031005  RH  098%=      5-min Rain = 0
KBI1 141131Z 11007KT M00/M01 A3028 RMK A01 T10031006  RH  098%=      5-min Rain = 0
KBI1 141132Z 11007KT M00/M01 A3028 RMK A01 T10031005  RH  098%=      5-min Rain = 0
KBI1 141133Z 11007KT M00/M01 A3028 RMK A01 T10031005  RH  098%=      5-min Rain = 0
KBI1 141134Z 11009KT M00/M01 A3029 RMK A01 T10031005  RH  098%=      5-min Rain = 0
KBI1 141135Z 10007KT M00/M01 A3029 RMK A01 T10031005  RH  098%=      5-min Rain = 0
KBI1 141136Z 11006KT M00/M01 A3029 RMK A01 T10031005  RH  098%=      5-min Rain = 0
KBI1 141137Z 11006KT M00/M01 A3029 RMK A01 T10031005  RH  098%=      5-min Rain = 0
KBI1 141138Z 11005KT M00/M01 A3029 RMK A01 T10031005  RH  098%=      5-min Rain = 0
KBI1 141139Z 11005KT M00/M01 A3029 RMK A01 T10031005  RH  098%=      5-min Rain = 0
KBI1 141140Z 10006KT M00/M01 A3029 RMK A01 T10031005  RH  098%=      5-min Rain = 0
KBI1 141141Z 12005KT M00/M01 A3029 RMK A01 T10031005  RH  098%=      5-min Rain = 0
KBI1 141142Z 11006KT M00/M01 A3029 RMK A01 T10031005  RH  098%=      5-min Rain = 0
KBI1 141143Z 11008KT M00/M01 A3029 RMK A01 T10031005  RH  098%=      5-min Rain = 0
KBI1 141144Z 11006KT M00/M01 A3029 RMK A01 T10031005  RH  098%=      5-min Rain = 0
KBI1 141145Z 11005KT M00/M01 A3029 RMK A01 T10031005  RH  098%=      5-min Rain = 0
KBI1 141146Z 11005KT M00/M01 A3029 RMK A01 T10031005  RH  098%=      5-min Rain = 0
KBI1 141147Z 11004KT M00/M00 A3029 RMK A01 T10021004  RH  099%=      5-min Rain = 0
KBI1 141148Z 11004KT M00/M00 A3029 RMK A01 T10021004  RH  099%=      5-min Rain = 0
KBI1 141149Z 11005KT M00/M00 A3029 RMK A01 T10021004  RH  099%=      5-min Rain = 0
KBI1 141150Z 12006KT M00/M00 A3029 RMK A01 T10021004  RH  099%=      5-min Rain = 0
KBI1 141151Z 13005KT M00/M00 A3029 RMK A01 T10021004  RH  099%=      5-min Rain = 0
KBI1 141152Z 13006KT M00/M00 A3029 RMK A01 T10021004  RH  099%=      5-min Rain = 0
KBI1 141153Z 12005KT M00/M00 A3029 RMK A01 T10021004  RH  099%=      5-min Rain = 0
KBI1 141154Z 12007KT M00/M00 A3029 RMK A01 T10021004  RH  099%=      5-min Rain = 0
KBI1 141155Z 13007KT M00/M00 A3029 RMK A01 T10021004  RH  099%=      5-min Rain = 0
KBI1 141156Z 12005KT M00/M00 A3029 RMK A01 T10021004  RH  099%=      5-min Rain = 0
KBI1 141157Z 11005KT M00/M00 A3029 RMK A01 T10021004  RH  099%=      5-min Rain = 0
KBI1 141158Z 10006KT M00/M00 A3029 RMK A01 T10021004  RH  099%=      5-min Rain = 0
KBI1 141159Z 11005KT M00/M00 A3029 RMK A01 T10011003  RH  099%=      5-min Rain = 0
KBI1 141200Z 11007KT M00/M00 A3029 RMK A01 T10021004  RH  099%=      5-min Rain = 0
KBI1 141201Z 13008KT M00/M00 A3029 RMK A01 T10021004  RH  099%=      5-min Rain = 0
KBI1 141202Z 13008KT M00/M00 A3029 RMK A01 T10021004  RH  099%=      5-min Rain = 0
KBI1 141203Z 12007KT M00/M00 A3029 RMK A01 T10021004  RH  099%=      5-min Rain = 0
KBI1 141204Z 13008KT M00/M00 A3029 RMK A01 T10021004  RH  099%=      5-min Rain = 0
KBI1 141205Z 13010KT M00/M00 A3029 RMK A01 T10021004  RH  099%=      5-min Rain = 0
KBI1 141206Z 14008KT M00/M00 A3029 RMK A01 T10021004  RH  099%=      5-min Rain = 0
KBI1 141207Z 14008KT M00/M00 A3029 RMK A01 T10021004  RH  099%=      5-min Rain = 0
KBI1 141208Z 14008KT M00/M01 A3029 RMK A01 T10031005  RH  099%=      5-min Rain = 0
KBI1 141209Z 14006KT M00/M01 A3029 RMK A01 T10031005  RH  099%=      5-min Rain = 0
KBI1 141210Z 13008KT M00/M01 A3029 RMK A01 T10031005  RH  099%=      5-min Rain = 0
KBI1 141211Z 13006KT M00/M01 A3029 RMK A01 T10031005  RH  099%=      5-min Rain = 0
KBI1 141212Z 13005KT M00/M01 A3029 RMK A01 T10031005  RH  099%=      5-min Rain = 0
KBI1 141213Z 13006KT M00/M00 A3029 RMK A01 T10021004  RH  099%=      5-min Rain = 0
KBI1 141214Z 12007KT M00/M00 A3029 RMK A01 T10021004  RH  099%=      5-min Rain = 0
KBI1 141215Z 12007KT M00/M00 A3029 RMK A01 T10021004  RH  099%=      5-min Rain = 0
KBI1 141216Z 12005KT M00/M00 A3029 RMK A01 T10021004  RH  099%=      5-min Rain = 0
KBI1 141217Z 12006KT M00/M00 A3029 RMK A01 T10021004  RH  099%=      5-min Rain = 0
KBI1 141218Z 12009KT M00/M00 A3029 RMK A01 T10021004  RH  099%=      5-min Rain = 0
KBI1 141219Z 12006KT M00/M00 A3029 RMK A01 T10021004  RH  099%=      5-min Rain = 0
KBI1 141220Z 10008KT M00/M00 A303 RMK A01 T10021004  RH  099%=      5-min Rain = 0
KBI1 141221Z 12005KT M00/M00 A303 RMK A01 T10021003  RH  099%=      5-min Rain = 0
KBI1 141222Z 14005KT M00/M00 A303 RMK A01 T10021004  RH  099%=      5-min Rain = 0
KBI1 141223Z 12005KT M00/M00 A303 RMK A01 T10021004  RH  099%=      5-min Rain = 0
KBI1 141224Z 13005KT M00/M00 A3029 RMK A01 T10011003  RH  099%=      5-min Rain = 0
KBI1 141225Z 13004KT M00/M00 A3029 RMK A01 T10011003  RH  099%=      5-min Rain = 0
KBI1 141226Z 13004KT M00/M00 A3029 RMK A01 T10011003  RH  099%=      5-min Rain = 0
KBI1 141227Z 13004KT M00/M00 A303 RMK A01 T10011002  RH  099%=      5-min Rain = 0
KBI1 141228Z 12005KT M00/M00 A303 RMK A01 T10011003  RH  099%=      5-min Rain = 0
KBI1 141229Z 13007KT M00/M00 A303 RMK A01 T10011003  RH  099%=      5-min Rain = 0
KBI1 141230Z 12006KT M00/M00 A303 RMK A01 T10021003  RH  099%=      5-min Rain = 0
KBI1 141231Z 12009KT M00/M00 A303 RMK A01 T10011003  RH  099%=      5-min Rain = 0
KBI1 141232Z 12009KT M00/M00 A303 RMK A01 T10021004  RH  099%=      5-min Rain = 0
KBI1 141233Z 12007KT M00/M00 A303 RMK A01 T10021004  RH  099%=      5-min Rain = 0
KBI1 141234Z 12006KT M00/M00 A303 RMK A01 T10021004  RH  099%=      5-min Rain = 0
KBI1 141235Z 12007KT M00/M00 A303 RMK A01 T10021004  RH  099%=      5-min Rain = 0
KBI1 141236Z 13006KT M00/M00 A303 RMK A01 T10021004  RH  099%=      5-min Rain = 0
KBI1 141237Z 13005KT M00/M00 A303 RMK A01 T10021004  RH  099%=      5-min Rain = 0
KBI1 141238Z 13005KT M00/M00 A303 RMK A01 T10021004  RH  099%=      5-min Rain = 0
KBI1 141239Z 12006KT M00/M00 A303 RMK A01 T10021003  RH  099%=      5-min Rain = 0
KBI1 141240Z 12006KT M00/M00 A303 RMK A01 T10021004  RH  099%=      5-min Rain = 0
KBI1 141241Z 13004KT M00/M00 A303 RMK A01 T10021004  RH  099%=      5-min Rain = 0
KBI1 141242Z 12005KT M00/M00 A303 RMK A01 T10021004  RH  099%=      5-min Rain = 0
KBI1 141243Z 12005KT M00/M00 A303 RMK A01 T10021004  RH  099%=      5-min Rain = 0
KBI1 141244Z 13005KT M00/M00 A303 RMK A01 T10021004  RH  099%=      5-min Rain = 0
KBI1 141245Z 12006KT M00/M00 A303 RMK A01 T10021004  RH  099%=      5-min Rain = 0
KBI1 141246Z 12006KT M00/M00 A303 RMK A01 T10021004  RH  099%=      5-min Rain = 0
KBI1 141247Z 12006KT M00/M00 A303 RMK A01 T10021004  RH  099%=      5-min Rain = 0
KBI1 141248Z 13007KT M00/M00 A303 RMK A01 T10021004  RH  099%=      5-min Rain = 0
KBI1 141249Z 12005KT M00/M01 A303 RMK A01 T10031005  RH  099%=      5-min Rain = 0
KBI1 141250Z 12007KT M00/M01 A303 RMK A01 T10031005  RH  099%=      5-min Rain = 0
KBI1 141251Z 13007KT M00/M00 A303 RMK A01 T10031004  RH  099%=      5-min Rain = 0
KBI1 141252Z 12008KT M00/M00 A303 RMK A01 T10031004  RH  099%=      5-min Rain = 0
KBI1 141253Z 12006KT M00/M01 A303 RMK A01 T10031005  RH  099%=      5-min Rain = 0
KBI1 141254Z 12004KT M00/M00 A303 RMK A01 T10031004  RH  099%=      5-min Rain = 0
KBI1 141255Z 11005KT M00/M00 A303 RMK A01 T10031004  RH  099%=      5-min Rain = 0
KBI1 141256Z 11007KT M00/M00 A303 RMK A01 T10021004  RH  099%=      5-min Rain = 0
KBI1 141257Z 11006KT M00/M00 A303 RMK A01 T10021004  RH  099%=      5-min Rain = 0
KBI1 141258Z 11006KT M00/M00 A3031 RMK A01 T10021004  RH  099%=      5-min Rain = 0
KBI1 141259Z 12006KT M00/M00 A3031 RMK A01 T10021004  RH  099%=      5-min Rain = 0
KBI1 141300Z 11005KT M00/M00 A3031 RMK A01 T10021004  RH  099%=      5-min Rain = 0
KBI1 141301Z 11005KT M00/M00 A3031 RMK A01 T10021004  RH  099%=      5-min Rain = 0
KBI1 141302Z 10006KT M00/M00 A3031 RMK A01 T10021004  RH  099%=      5-min Rain = 0
KBI1 141303Z 11007KT M00/M00 A3031 RMK A01 T10021004  RH  099%=      5-min Rain = 0
KBI1 141304Z 11006KT M00/M00 A3031 RMK A01 T10021004  RH  099%=      5-min Rain = 0
KBI1 141305Z 12006KT M00/M00 A3031 RMK A01 T10021004  RH  099%=      5-min Rain = 0
KBI1 141306Z 12007KT M00/M00 A3031 RMK A01 T10021004  RH  099%=      5-min Rain = 0
KBI1 141307Z 12007KT M00/M00 A3031 RMK A01 T10021004  RH  099%=      5-min Rain = 0
KBI1 141308Z 13008KT M00/M00 A3031 RMK A01 T10031004  RH  099%=      5-min Rain = 0
KBI1 141309Z 13007KT M00/M00 A3031 RMK A01 T10031004  RH  099%=      5-min Rain = 0
KBI1 141310Z 13009KT M00/M00 A3031 RMK A01 T10031004  RH  099%=      5-min Rain = 0
KBI1 141311Z 13008KT M00/M01 A3031 RMK A01 T10031005  RH  099%=      5-min Rain = 0
KBI1 141312Z 13006KT M00/M01 A3031 RMK A01 T10031005  RH  099%=      5-min Rain = 0
KBI1 141313Z 14004KT M00/M01 A3031 RMK A01 T10041005  RH  099%=      5-min Rain = 0
KBI1 141314Z 13005KT M00/M01 A3031 RMK A01 T10031005  RH  099%=      5-min Rain = 0
KBI1 141315Z 14007KT M00/M01 A3031 RMK A01 T10031005  RH  099%=      5-min Rain = 0
KBI1 141316Z 13008KT M00/M00 A3031 RMK A01 T10031004  RH  099%=      5-min Rain = 0
KBI1 141317Z 13006KT M00/M01 A3031 RMK A01 T10031005  RH  099%=      5-min Rain = 0
KBI1 141318Z 12006KT M00/M01 A3031 RMK A01 T10031005  RH  099%=      5-min Rain = 0
KBI1 141319Z 13006KT M00/M00 A3031 RMK A01 T10031004  RH  099%=      5-min Rain = 0
KBI1 141320Z 13005KT M00/M00 A3031 RMK A01 T10031004  RH  099%=      5-min Rain = 0
KBI1 141321Z 13006KT M00/M00 A3031 RMK A01 T10031004  RH  099%=      5-min Rain = 0
KBI1 141322Z 12006KT M00/M00 A3032 RMK A01 T10031004  RH  099%=      5-min Rain = 0
KBI1 141323Z 12004KT M00/M00 A3032 RMK A01 T10021004  RH  099%=      5-min Rain = 0
KBI1 141324Z 12005KT M00/M00 A3032 RMK A01 T10021004  RH  099%=      5-min Rain = 0
KBI1 141325Z 11006KT M00/M00 A3032 RMK A01 T10021003  RH  099%=      5-min Rain = 0
KBI1 141326Z 11006KT M00/M00 A3032 RMK A01 T10021003  RH  099%=      5-min Rain = 0
KBI1 141327Z 12008KT M00/M00 A3032 RMK A01 T10021003  RH  099%=      5-min Rain = 0
KBI1 141328Z 12008KT M00/M00 A3032 RMK A01 T10021004  RH  099%=      5-min Rain = 0
KBI1 141329Z 12006KT M00/M00 A3032 RMK A01 T10031004  RH  099%=      5-min Rain = 0
KBI1 141330Z 13007KT M00/M00 A3032 RMK A01 T10031004  RH  099%=      5-min Rain = 0
KBI1 141331Z 12007KT M00/M00 A3032 RMK A01 T10031004  RH  099%=      5-min Rain = 0
KBI1 141332Z 13005KT M00/M00 A3032 RMK A01 T10031004  RH  099%=      5-min Rain = 0
KBI1 141333Z 12006KT M00/M00 A3032 RMK A01 T10031004  RH  099%=      5-min Rain = 0
KBI1 141334Z 12008KT M00/M00 A3032 RMK A01 T10031004  RH  099%=      5-min Rain = 0
KBI1 141335Z 12008KT M00/M00 A3032 RMK A01 T10031004  RH  099%=      5-min Rain = 0
KBI1 141336Z 12007KT M00/M00 A3032 RMK A01 T10031004  RH  099%=      5-min Rain = 0
KBI1 141337Z 12006KT M00/M00 A3032 RMK A01 T10031004  RH  099%=      5-min Rain = 0
KBI1 141338Z 12005KT M00/M00 A3032 RMK A01 T10031004  RH  099%=      5-min Rain = 0
KBI1 141339Z 12004KT M00/M00 A3032 RMK A01 T10021003  RH  099%=      5-min Rain = 0
KBI1 141340Z 12007KT M00/M00 A3032 RMK A01 T10021003  RH  099%=      5-min Rain = 0
KBI1 141341Z 12007KT M00/M00 A3032 RMK A01 T10021003  RH  099%=      5-min Rain = 0
KBI1 141342Z 13008KT M00/M00 A3032 RMK A01 T10021003  RH  099%=      5-min Rain = 0
KBI1 141343Z 13007KT M00/M00 A3032 RMK A01 T10021003  RH  099%=      5-min Rain = 0
KBI1 141344Z 13006KT M00/M00 A3032 RMK A01 T10021003  RH  099%=      5-min Rain = 0
KBI1 141345Z 12005KT M00/M00 A3032 RMK A01 T10021003  RH  099%=      5-min Rain = 0
KBI1 141346Z 13006KT M00/M00 A3032 RMK A01 T10021003  RH  099%=      5-min Rain = 0
KBI1 141347Z 14006KT M00/M00 A3032 RMK A01 T10011003  RH  099%=      5-min Rain = 0
KBI1 141348Z 15007KT M00/M00 A3032 RMK A01 T10011003  RH  099%=      5-min Rain = 0
KBI1 141349Z 14007KT M00/M00 A3032 RMK A01 T10011003  RH  099%=      5-min Rain = 0
KBI1 141350Z 14005KT M00/M00 A3032 RMK A01 T10011002  RH  099%=      5-min Rain = 0
KBI1 141351Z 14008KT M00/M00 A3032 RMK A01 T10011003  RH  099%=      5-min Rain = 0
KBI1 141352Z 13007KT M00/M00 A3032 RMK A01 T10011003  RH  099%=      5-min Rain = 0
KBI1 141353Z 14007KT M00/M00 A3032 RMK A01 T10021003  RH  099%=      5-min Rain = 0
KBI1 141354Z 15005KT M00/M00 A3032 RMK A01 T10021003  RH  099%=      5-min Rain = 0
KBI1 141355Z 13005KT M00/M00 A3032 RMK A01 T10011002  RH  099%=      5-min Rain = 0
KBI1 141356Z 14005KT M00/M00 A3032 RMK A01 T10011002  RH  099%=      5-min Rain = 0
KBI1 141357Z 14005KT 00/00 A3033 RMK A01 T00-000-2  RH  099%=      5-min Rain = 0
KBI1 141358Z 13006KT 00/00 A3033 RMK A01 T000000-1  RH  099%=      5-min Rain = 0
KBI1 141359Z 13007KT 00/00 A3033 RMK A01 T00-000-1  RH  099%=      5-min Rain = 0
KBI1 141400Z 13008KT 00/00 A3033 RMK A01 T00-000-2  RH  099%=      5-min Rain = 0
KBI1 141401Z 13007KT M00/M00 A3033 RMK A01 T10011002  RH  099%=      5-min Rain = 0
KBI1 141402Z 13006KT 00/00 A3033 RMK A01 T00-000-2  RH  099%=      5-min Rain = 0
KBI1 141403Z 12005KT M00/M00 A3033 RMK A01 T10011002  RH  099%=      5-min Rain = 0
KBI1 141404Z 12008KT 00/00 A3033 RMK A01 T00-000-2  RH  099%=      5-min Rain = 0
KBI1 141405Z 12007KT 00/00 A3033 RMK A01 T00-000-1  RH  099%=      5-min Rain = 0
KBI1 141406Z 12005KT 00/00 A3033 RMK A01 T00-000-2  RH  099%=      5-min Rain = 0
KBI1 141407Z 12007KT 00/00 A3033 RMK A01 T00-000-1  RH  099%=      5-min Rain = 0
KBI1 141408Z 13007KT 00/00 A3033 RMK A01 T000000-1  RH  099%=      5-min Rain = 0
KBI1 141409Z 13005KT 00/00 A3033 RMK A01 T000000-1  RH  099%=      5-min Rain = 0
KBI1 141410Z 14005KT 00/00 A3033 RMK A01 T000100-0  RH  099%=      5-min Rain = 0
KBI1 141411Z 15003KT 00/00 A3033 RMK A01 T000100-0  RH  099%=      5-min Rain = 0
KBI1 141412Z 13005KT 00/00 A3033 RMK A01 T000100-0  RH  099%=      5-min Rain = 0
KBI1 141413Z 13005KT 00/00 A3033 RMK A01 T00020000  RH  099%=      5-min Rain = 0
KBI1 141414Z 14006KT 00/00 A3033 RMK A01 T00010000  RH  099%=      5-min Rain = 0
KBI1 141415Z 13006KT 00/00 A3033 RMK A01 T000100-0  RH  099%=      5-min Rain = 0
KBI1 141416Z 14004KT 00/M00 A3033 RMK A01 T00011001  RH  099%=      5-min Rain = 0
KBI1 141417Z 14004KT 00/00 A3033 RMK A01 T000100-0  RH  099%=      5-min Rain = 0
KBI1 141418Z 12006KT 00/M00 A3033 RMK A01 T00011001  RH  099%=      5-min Rain = 0
KBI1 141419Z 13009KT 00/00 A3033 RMK A01 T00020000  RH  099%=      5-min Rain = 0
KBI1 141420Z 13008KT 00/00 A3033 RMK A01 T000100-0  RH  099%=      5-min Rain = 0
KBI1 141421Z 13007KT 00/M00 A3033 RMK A01 T00011001  RH  099%=      5-min Rain = 0
KBI1 141422Z 12007KT 00/M00 A3033 RMK A01 T00011001  RH  099%=      5-min Rain = 0
KBI1 141423Z 13007KT 00/00 A3033 RMK A01 T000100-0  RH  099%=      5-min Rain = 0
KBI1 141424Z 13008KT 00/00 A3034 RMK A01 T00020000  RH  099%=      5-min Rain = 0
KBI1 141425Z 14006KT 00/00 A3034 RMK A01 T00020000  RH  099%=      5-min Rain = 0
KBI1 141426Z 14008KT 00/00 A3034 RMK A01 T00020000  RH  099%=      5-min Rain = 0
KBI1 141427Z 15006KT 00/00 A3034 RMK A01 T00020000  RH  099%=      5-min Rain = 0
KBI1 141428Z 15006KT 00/00 A3033 RMK A01 T00020000  RH  099%=      5-min Rain = 0
KBI1 141429Z 16009KT 00/00 A3033 RMK A01 T00020001  RH  099%=      5-min Rain = 0
KBI1 141430Z 14006KT 00/00 A3033 RMK A01 T00020001  RH  099%=      5-min Rain = 0
KBI1 141431Z 14006KT 00/00 A3033 RMK A01 T00030001  RH  099%=      5-min Rain = 0
KBI1 141432Z 14008KT 00/00 A3033 RMK A01 T00030001  RH  099%=      5-min Rain = 0
KBI1 141433Z 13007KT 00/00 A3033 RMK A01 T00030001  RH  099%=      5-min Rain = 0
KBI1 141434Z 15006KT 00/00 A3033 RMK A01 T00020000  RH  099%=      5-min Rain = 0
KBI1 141435Z 15006KT 00/00 A3033 RMK A01 T00020000  RH  099%=      5-min Rain = 0
KBI1 141436Z 15008KT 00/00 A3033 RMK A01 T00020001  RH  099%=      5-min Rain = 0
KBI1 141437Z 16007KT 00/00 A3033 RMK A01 T00030001  RH  099%=      5-min Rain = 0
KBI1 141438Z 16008KT 00/00 A3034 RMK A01 T00030001  RH  099%=      5-min Rain = 0
KBI1 141439Z 15010KT 00/00 A3033 RMK A01 T00030001  RH  099%=      5-min Rain = 0
KBI1 141440Z 16010KT 00/00 A3033 RMK A01 T00030001  RH  099%=      5-min Rain = 0
KBI1 141441Z 15009KT 00/00 A3033 RMK A01 T00030001  RH  099%=      5-min Rain = 0
KBI1 141442Z 17008KT 00/00 A3034 RMK A01 T00030001  RH  099%=      5-min Rain = 0
KBI1 141443Z 17007KT 00/00 A3034 RMK A01 T00030001  RH  099%=      5-min Rain = 0
KBI1 141444Z 17008KT 00/00 A3034 RMK A01 T00040002  RH  099%=      5-min Rain = 0
KBI1 141445Z 17008KT 00/00 A3034 RMK A01 T00040002  RH  098%=      5-min Rain = 0
KBI1 141446Z 16007KT 00/00 A3034 RMK A01 T00040002  RH  098%=      5-min Rain = 0
KBI1 141447Z 16006KT 00/00 A3034 RMK A01 T00040002  RH  098%=      5-min Rain = 0
KBI1 141448Z 16007KT 00/00 A3034 RMK A01 T00040002  RH  098%=      5-min Rain = 0
KBI1 141449Z 15005KT 01/00 A3034 RMK A01 T00050002  RH  098%=      5-min Rain = 0
KBI1 141450Z 16007KT 01/00 A3034 RMK A01 T00050002  RH  098%=      5-min Rain = 0
KBI1 141451Z 15007KT 01/00 A3034 RMK A01 T00050002  RH  098%=      5-min Rain = 0
KBI1 141452Z 15008KT 01/00 A3034 RMK A01 T00050002  RH  098%=      5-min Rain = 0
KBI1 141453Z 15004KT 01/00 A3034 RMK A01 T00050002  RH  098%=      5-min Rain = 0
KBI1 141454Z 15005KT 01/00 A3034 RMK A01 T00050002  RH  098%=      5-min Rain = 0
KBI1 141455Z 15005KT 01/00 A3034 RMK A01 T00050002  RH  098%=      5-min Rain = 0
KBI1 141456Z 16006KT 01/00 A3034 RMK A01 T00050002  RH  098%=      5-min Rain = 0
KBI1 141457Z 16007KT 01/00 A3034 RMK A01 T00060003  RH  098%=      5-min Rain = 0
KBI1 141458Z 15008KT 01/00 A3034 RMK A01 T00050002  RH  098%=      5-min Rain = 0
KBI1 141459Z 15005KT 01/00 A3034 RMK A01 T00050002  RH  098%=      5-min Rain = 0
KBI1 141500Z 16006KT 00/00 A3034 RMK A01 T00040002  RH  098%=      5-min Rain = 0
KBI1 141501Z 15007KT 00/00 A3034 RMK A01 T00040002  RH  098%=      5-min Rain = 0
KBI1 141502Z 15008KT 01/00 A3034 RMK A01 T00050002  RH  098%=      5-min Rain = 0
KBI1 141503Z 16008G13KT 01/00 A3034 RMK A01 T00050002  RH  098%=      5-min Rain = 0
KBI1 141504Z 16010KT 01/00 A3034 RMK A01 T00050002  RH  098%=      5-min Rain = 0
KBI1 141505Z 16009KT 01/00 A3034 RMK A01 T00050002  RH  098%=      5-min Rain = 0
KBI1 141506Z 16010KT 01/00 A3034 RMK A01 T00050002  RH  098%=      5-min Rain = 0
KBI1 141507Z 16009KT 01/00 A3034 RMK A01 T00050002  RH  098%=      5-min Rain = 0
KBI1 141508Z 17010KT 01/00 A3034 RMK A01 T00060003  RH  098%=      5-min Rain = 0
KBI1 141509Z 17012KT 01/00 A3034 RMK A01 T00060003  RH  098%=      5-min Rain = 0
KBI1 141510Z 17011KT 01/00 A3034 RMK A01 T00060003  RH  097%=      5-min Rain = 0
KBI1 141511Z 17012KT 01/00 A3034 RMK A01 T00070003  RH  097%=      5-min Rain = 0
KBI1 141512Z 17012KT 01/00 A3034 RMK A01 T00060002  RH  097%=      5-min Rain = 0
KBI1 141513Z 17010KT 01/00 A3034 RMK A01 T00060002  RH  097%=      5-min Rain = 0
KBI1 141514Z 17008KT 01/00 A3034 RMK A01 T00070003  RH  097%=      5-min Rain = 0
KBI1 141515Z 18009KT 01/00 A3034 RMK A01 T00080003  RH  097%=      5-min Rain = 0
KBI1 141516Z 17011KT 01/00 A3034 RMK A01 T00080003  RH  097%=      5-min Rain = 0
KBI1 141517Z 17012KT 01/00 A3034 RMK A01 T00080003  RH  096%=      5-min Rain = 0
KBI1 141518Z 17009KT 01/00 A3034 RMK A01 T00080002  RH  096%=      5-min Rain = 0
KBI1 141519Z 17009KT 01/00 A3034 RMK A01 T00080002  RH  096%=      5-min Rain = 0
KBI1 141520Z 17009KT 01/00 A3034 RMK A01 T00080003  RH  096%=      5-min Rain = 0
KBI1 141521Z 16007KT 01/00 A3034 RMK A01 T00090003  RH  096%=      5-min Rain = 0
KBI1 141522Z 16008KT 01/00 A3034 RMK A01 T00090003  RH  096%=      5-min Rain = 0
KBI1 141523Z 15008KT 01/00 A3034 RMK A01 T00100003  RH  096%=      5-min Rain = 0
KBI1 141524Z 17009KT 01/00 A3034 RMK A01 T00100003  RH  095%=      5-min Rain = 0
KBI1 141525Z 16010KT 01/00 A3034 RMK A01 T00100003  RH  095%=      5-min Rain = 0
KBI1 141526Z 17011KT 01/00 A3034 RMK A01 T00100002  RH  095%=      5-min Rain = 0
KBI1 141527Z 16010KT 01/00 A3034 RMK A01 T00100002  RH  094%=      5-min Rain = 0
KBI1 141528Z 17008G13KT 01/00 A3034 RMK A01 T00100002  RH  094%=      5-min Rain = 0
KBI1 141529Z 16010KT 01/00 A3034 RMK A01 T00110003  RH  094%=      5-min Rain = 0
KBI1 141530Z 17009KT 01/00 A3034 RMK A01 T00110002  RH  094%=      5-min Rain = 0
KBI1 141531Z 16007KT 01/00 A3034 RMK A01 T00110002  RH  094%=      5-min Rain = 0
KBI1 141532Z 16008KT 01/00 A3034 RMK A01 T00110002  RH  094%=      5-min Rain = 0
KBI1 141533Z 16009KT 01/00 A3034 RMK A01 T00120003  RH  094%=      5-min Rain = 0
KBI1 141534Z 17011KT 01/00 A3034 RMK A01 T00120002  RH  093%=      5-min Rain = 0
KBI1 141535Z 16011KT 01/00 A3034 RMK A01 T00120002  RH  093%=      5-min Rain = 0
KBI1 141536Z 16009KT 01/00 A3034 RMK A01 T00120001  RH  093%=      5-min Rain = 0
KBI1 141537Z 16008KT 01/00 A3034 RMK A01 T00120002  RH  093%=      5-min Rain = 0
KBI1 141538Z 17009KT 01/00 A3034 RMK A01 T00130003  RH  093%=      5-min Rain = 0
KBI1 141539Z 17011KT 01/00 A3034 RMK A01 T00140003  RH  093%=      5-min Rain = 0
KBI1 141540Z 16011KT 01/00 A3034 RMK A01 T00140002  RH  092%=      5-min Rain = 0
KBI1 141541Z 16008KT 01/00 A3034 RMK A01 T00140001  RH  092%=      5-min Rain = 0
KBI1 141542Z 17009KT 01/00 A3034 RMK A01 T00140002  RH  092%=      5-min Rain = 0
KBI1 141543Z 16007KT 02/00 A3034 RMK A01 T00150003  RH  092%=      5-min Rain = 0
KBI1 141544Z 16007KT 02/01 A3034 RMK A01 T00170005  RH  092%=      5-min Rain = 0
KBI1 141545Z 17008KT 02/01 A3034 RMK A01 T00180005  RH  091%=      5-min Rain = 0
KBI1 141546Z 17008KT 02/00 A3034 RMK A01 T00180004  RH  091%=      5-min Rain = 0
KBI1 141547Z 17009KT 02/00 A3034 RMK A01 T00180003  RH  090%=      5-min Rain = 0
KBI1 141548Z 16011KT 02/00 A3034 RMK A01 T00180002  RH  089%=      5-min Rain = 0
KBI1 141549Z 16011KT 02/00 A3034 RMK A01 T00190001  RH  088%=      5-min Rain = 0
KBI1 141550Z 16011KT 02/M00 A3034 RMK A01 T00181001  RH  087%=      5-min Rain = 0
KBI1 141551Z 16011KT 02/M00 A3034 RMK A01 T00181001  RH  087%=      5-min Rain = 0
KBI1 141552Z 16010KT 02/M00 A3034 RMK A01 T00181001  RH  087%=      5-min Rain = 0
KBI1 141553Z 15010G15KT 02/M00 A3034 RMK A01 T00181001  RH  087%=      5-min Rain = 0
KBI1 141554Z 14008KT 02/M00 A3034 RMK A01 T00181001  RH  087%=      5-min Rain = 0
KBI1 141555Z 15011KT 02/M00 A3034 RMK A01 T00181001  RH  088%=      5-min Rain = 0
KBI1 141556Z 15010KT 02/M00 A3034 RMK A01 T00181001  RH  087%=      5-min Rain = 0
KBI1 141557Z 16007KT 02/00 A3034 RMK A01 T001800-0  RH  088%=      5-min Rain = 0
KBI1 141558Z 16008KT 02/00 A3034 RMK A01 T00190001  RH  088%=      5-min Rain = 0
KBI1 141559Z 16009KT 02/00 A3034 RMK A01 T00200000  RH  087%=      5-min Rain = 0
KBI1 141600Z 15011KT 02/00 A3034 RMK A01 T002000-0  RH  086%=      5-min Rain = 0
KBI1 141601Z 16009KT 02/M00 A3034 RMK A01 T00201002  RH  086%=      5-min Rain = 0
KBI1 141602Z 15010KT 02/M00 A3034 RMK A01 T00191002  RH  086%=      5-min Rain = 0
KBI1 141603Z 17008KT 02/M00 A3034 RMK A01 T00191002  RH  086%=      5-min Rain = 0
KBI1 141604Z 17009KT 02/00 A3034 RMK A01 T00200000  RH  087%=      5-min Rain = 0
KBI1 141605Z 17009KT 02/00 A3034 RMK A01 T00210001  RH  087%=      5-min Rain = 0
KBI1 141606Z 17012KT 02/00 A3034 RMK A01 T00210000  RH  086%=      5-min Rain = 0
KBI1 141607Z 17012KT 02/M00 A3034 RMK A01 T00211001  RH  086%=      5-min Rain = 0
KBI1 141608Z 15011G16KT 02/M00 A3034 RMK A01 T00201002  RH  086%=      5-min Rain = 0
KBI1 141609Z 16010KT 02/M00 A3034 RMK A01 T00201002  RH  086%=      5-min Rain = 0
KBI1 141610Z 16013KT 02/M00 A3034 RMK A01 T00201002  RH  085%=      5-min Rain = 0
KBI1 141611Z 16013KT 02/M00 A3034 RMK A01 T00201002  RH  085%=      5-min Rain = 0
KBI1 141612Z 15012G17KT 02/M00 A3034 RMK A01 T00201003  RH  085%=      5-min Rain = 0
KBI1 141613Z 16011KT 02/M00 A3034 RMK A01 T00201003  RH  085%=      5-min Rain = 0
KBI1 141614Z 17010KT 02/M00 A3034 RMK A01 T00211001  RH  085%=      5-min Rain = 0
KBI1 141615Z 17009KT 02/00 A3034 RMK A01 T002200-0  RH  086%=      5-min Rain = 0
KBI1 141616Z 17010KT 02/00 A3034 RMK A01 T00220001  RH  086%=      5-min Rain = 0
KBI1 141617Z 17010KT 02/00 A3034 RMK A01 T00230001  RH  086%=      5-min Rain = 0
KBI1 141618Z 18008KT 02/00 A3034 RMK A01 T00230001  RH  086%=      5-min Rain = 0
KBI1 141619Z 16010KT 02/00 A3034 RMK A01 T00230002  RH  086%=      5-min Rain = 0
KBI1 141620Z 16010KT 03/00 A3034 RMK A01 T00250002  RH  085%=      5-min Rain = 0
KBI1 141621Z 16008KT 03/00 A3034 RMK A01 T00250000  RH  084%=      5-min Rain = 0
KBI1 141622Z 16010KT 03/00 A3034 RMK A01 T00250000  RH  084%=      5-min Rain = 0
KBI1 141623Z 17008KT 02/M00 A3034 RMK A01 T00241001  RH  084%=      5-min Rain = 0
KBI1 141624Z 17011KT 03/00 A3034 RMK A01 T00250001  RH  084%=      5-min Rain = 0
KBI1 141625Z 17009KT 03/00 A3034 RMK A01 T00260001  RH  084%=      5-min Rain = 0
KBI1 141626Z 17012KT 03/00 A3034 RMK A01 T00260001  RH  084%=      5-min Rain = 0
KBI1 141627Z 16011KT 03/00 A3034 RMK A01 T00260001  RH  083%=      5-min Rain = 0
KBI1 141628Z 16010KT 03/00 A3034 RMK A01 T00260000  RH  084%=      5-min Rain = 0
KBI1 141629Z 17010KT 03/00 A3034 RMK A01 T00250001  RH  084%=      5-min Rain = 0
KBI1 141630Z 17013KT 03/00 A3034 RMK A01 T00260001  RH  084%=      5-min Rain = 0
KBI1 141631Z 17010KT 03/00 A3034 RMK A01 T00260000  RH  083%=      5-min Rain = 0
KBI1 141632Z 17011KT 03/00 A3034 RMK A01 T00260000  RH  083%=      5-min Rain = 0
KBI1 141633Z 17012KT 03/00 A3034 RMK A01 T00260001  RH  083%=      5-min Rain = 0
KBI1 141634Z 17010KT 03/00 A3034 RMK A01 T00260000  RH  083%=      5-min Rain = 0
KBI1 141635Z 16007KT 03/00 A3034 RMK A01 T00270001  RH  083%=      5-min Rain = 0
KBI1 141636Z 16011KT 03/00 A3034 RMK A01 T00280003  RH  084%=      5-min Rain = 0
KBI1 141637Z 17011KT 03/00 A3034 RMK A01 T00290002  RH  083%=      5-min Rain = 0
KBI1 141638Z 15010KT 03/00 A3034 RMK A01 T00280001  RH  082%=      5-min Rain = 0
KBI1 141639Z 16008KT 03/00 A3034 RMK A01 T00280001  RH  082%=      5-min Rain = 0
KBI1 141640Z 16011KT 03/00 A3033 RMK A01 T00290002  RH  082%=      5-min Rain = 0
KBI1 141641Z 18012KT 03/00 A3033 RMK A01 T00290002  RH  082%=      5-min Rain = 0
KBI1 141642Z 16012KT 03/00 A3033 RMK A01 T00300003  RH  082%=      5-min Rain = 0
KBI1 141643Z 17012KT 03/00 A3033 RMK A01 T00310003  RH  082%=      5-min Rain = 0
KBI1 141644Z 18015KT 03/00 A3033 RMK A01 T00320002  RH  081%=      5-min Rain = 0
KBI1 141645Z 17015KT 03/00 A3033 RMK A01 T00320002  RH  081%=      5-min Rain = 0
KBI1 141646Z 17012KT 03/00 A3033 RMK A01 T00320002  RH  081%=      5-min Rain = 0
KBI1 141647Z 17010KT 03/00 A3033 RMK A01 T00320004  RH  082%=      5-min Rain = 0
KBI1 141648Z 17015KT 04/01 A3033 RMK A01 T00350005  RH  081%=      5-min Rain = 0
KBI1 141649Z 17014KT 03/00 A3033 RMK A01 T00340002  RH  080%=      5-min Rain = 0
KBI1 141650Z 17016KT 03/00 A3033 RMK A01 T00330002  RH  080%=      5-min Rain = 0
KBI1 141651Z 17015KT 03/00 A3033 RMK A01 T00320001  RH  080%=      5-min Rain = 0
KBI1 141652Z 17015KT 03/00 A3033 RMK A01 T00320002  RH  080%=      5-min Rain = 0
KBI1 141653Z 17015KT 03/00 A3033 RMK A01 T00320001  RH  080%=      5-min Rain = 0
KBI1 141654Z 17014KT 03/00 A3033 RMK A01 T00310001  RH  081%=      5-min Rain = 0
KBI1 141655Z 17015KT 03/00 A3033 RMK A01 T00320003  RH  081%=      5-min Rain = 0
KBI1 141656Z 17014KT 03/00 A3033 RMK A01 T00330003  RH  081%=      5-min Rain = 0
KBI1 141657Z 17012KT 03/00 A3033 RMK A01 T00340003  RH  081%=      5-min Rain = 0
KBI1 141658Z 17012KT 03/00 A3033 RMK A01 T00340003  RH  080%=      5-min Rain = 0
KBI1 141659Z 16010KT 04/00 A3033 RMK A01 T00350003  RH  080%=      5-min Rain = 0
KBI1 141700Z 17009G15KT 04/00 A3033 RMK A01 T00350004  RH  080%=      5-min Rain = 0
KBI1 141701Z 18013KT 04/01 A3033 RMK A01 T00370005  RH  080%=      5-min Rain = 0
KBI1 141702Z 17013KT 04/00 A3033 RMK A01 T00370004  RH  079%=      5-min Rain = 0
KBI1 141703Z 16013KT 04/00 A3033 RMK A01 T00360004  RH  079%=      5-min Rain = 0
KBI1 141704Z 16013KT 04/00 A3033 RMK A01 T00360003  RH  079%=      5-min Rain = 0
KBI1 141705Z 17014KT 04/00 A3033 RMK A01 T00360003  RH  079%=      5-min Rain = 0
KBI1 141706Z 17014KT 04/01 A3032 RMK A01 T00370005  RH  079%=      5-min Rain = 0
KBI1 141707Z 17017G22KT 04/00 A3032 RMK A01 T00380004  RH  079%=      5-min Rain = 0
KBI1 141708Z 18018KT 04/00 A3032 RMK A01 T00370003  RH  078%=      5-min Rain = 0
KBI1 141709Z 18015KT 04/00 A3032 RMK A01 T00360003  RH  079%=      5-min Rain = 0
KBI1 141710Z 18015KT 04/00 A3032 RMK A01 T00370004  RH  079%=      5-min Rain = 0
KBI1 141711Z 17015KT 04/00 A3032 RMK A01 T00370004  RH  079%=      5-min Rain = 0
KBI1 141712Z 17012KT 04/00 A3032 RMK A01 T00380004  RH  078%=      5-min Rain = 0
KBI1 141713Z 17013KT 04/00 A3032 RMK A01 T00380004  RH  078%=      5-min Rain = 0
KBI1 141714Z 16013KT 04/00 A3032 RMK A01 T00380003  RH  078%=      5-min Rain = 0
KBI1 141715Z 16013KT 04/00 A3032 RMK A01 T00380004  RH  078%=      5-min Rain = 0
KBI1 141716Z 16014KT 04/00 A3032 RMK A01 T00380003  RH  078%=      5-min Rain = 0
KBI1 141717Z 16013KT 04/01 A3032 RMK A01 T00390005  RH  078%=      5-min Rain = 0
KBI1 141718Z 16012KT 04/00 A3032 RMK A01 T00400004  RH  077%=      5-min Rain = 0
KBI1 141719Z 16008KT 04/01 A3032 RMK A01 T00400005  RH  078%=      5-min Rain = 0
KBI1 141720Z 17011KT 04/01 A3032 RMK A01 T00420008  RH  078%=      5-min Rain = 0
KBI1 141721Z 16013KT 04/01 A3032 RMK A01 T00440007  RH  077%=      5-min Rain = 0
KBI1 141722Z 16013KT 04/01 A3032 RMK A01 T00430005  RH  076%=      5-min Rain = 0
KBI1 141723Z 16012KT 04/00 A3032 RMK A01 T00420004  RH  076%=      5-min Rain = 0
KBI1 141724Z 16009KT 04/01 A3032 RMK A01 T00410005  RH  077%=      5-min Rain = 0
KBI1 141725Z 17010KT 04/01 A3032 RMK A01 T00440008  RH  078%=      5-min Rain = 0
KBI1 141726Z 16011KT 05/01 A3032 RMK A01 T00450007  RH  076%=      5-min Rain = 0
KBI1 141727Z 16011KT 05/01 A3032 RMK A01 T00450006  RH  076%=      5-min Rain = 0
KBI1 141728Z 16013KT 04/01 A3032 RMK A01 T00440005  RH  076%=      5-min Rain = 0
KBI1 141729Z 16010G15KT 04/01 A3032 RMK A01 T00430005  RH  076%=      5-min Rain = 0
KBI1 141730Z 16010KT 04/01 A3032 RMK A01 T00440007  RH  077%=      5-min Rain = 0
KBI1 141731Z 16012G17KT 04/01 A3032 RMK A01 T00440006  RH  076%=      5-min Rain = 0
KBI1 141732Z 15012KT 05/01 A3032 RMK A01 T00460008  RH  076%=      5-min Rain = 0
KBI1 141733Z 16013KT 05/01 A3032 RMK A01 T00470008  RH  076%=      5-min Rain = 0
KBI1 141734Z 16011KT 05/01 A3032 RMK A01 T00460006  RH  075%=      5-min Rain = 0
KBI1 141735Z 16013KT 05/01 A3032 RMK A01 T00450006  RH  076%=      5-min Rain = 0
KBI1 141736Z 16011KT 05/01 A3032 RMK A01 T00450007  RH  076%=      5-min Rain = 0
KBI1 141737Z 18014G20KT 05/01 A3032 RMK A01 T00460008  RH  077%=      5-min Rain = 0
KBI1 141738Z 18015KT 05/01 A3032 RMK A01 T00470008  RH  076%=      5-min Rain = 0
KBI1 141739Z 17017KT 05/01 A3031 RMK A01 T00470008  RH  076%=      5-min Rain = 0
KBI1 141740Z 16012KT 05/01 A3032 RMK A01 T00470007  RH  075%=      5-min Rain = 0
KBI1 141741Z 16014KT 05/01 A3032 RMK A01 T00470008  RH  076%=      5-min Rain = 0
KBI1 141742Z 17013KT 05/01 A3032 RMK A01 T00480008  RH  075%=      5-min Rain = 0
KBI1 141743Z 17013KT 05/01 A3031 RMK A01 T00490009  RH  075%=      5-min Rain = 0
KBI1 141744Z 18016KT 05/01 A3031 RMK A01 T00490008  RH  075%=      5-min Rain = 0
KBI1 141745Z 18014KT 05/01 A3031 RMK A01 T00490008  RH  075%=      5-min Rain = 0
KBI1 141746Z 17014KT 05/01 A3031 RMK A01 T00490008  RH  075%=      5-min Rain = 0
KBI1 141747Z 18013KT 05/01 A3031 RMK A01 T00490008  RH  075%=      5-min Rain = 0
KBI1 141748Z 17014KT 05/01 A3031 RMK A01 T00490008  RH  075%=      5-min Rain = 0
KBI1 141749Z 18014KT 05/01 A3031 RMK A01 T00490008  RH  075%=      5-min Rain = 0
KBI1 141750Z 16012KT 05/01 A3031 RMK A01 T00500009  RH  075%=      5-min Rain = 0
KBI1 141751Z 16011KT 05/01 A3031 RMK A01 T00500008  RH  074%=      5-min Rain = 0
KBI1 141752Z 16010KT 05/01 A3031 RMK A01 T00500009  RH  075%=      5-min Rain = 0
KBI1 141753Z 16013KT 05/01 A3031 RMK A01 T00530012  RH  075%=      5-min Rain = 0
KBI1 141754Z 18012KT 05/01 A3031 RMK A01 T00540011  RH  074%=      5-min Rain = 0
KBI1 141755Z 16009KT 06/01 A3031 RMK A01 T00550013  RH  074%=      5-min Rain = 0
KBI1 141756Z 15009KT 06/01 A3031 RMK A01 T00580014  RH  073%=      5-min Rain = 0
KBI1 141757Z 16010KT 06/01 A3031 RMK A01 T00610013  RH  072%=      5-min Rain = 0
KBI1 141758Z 16011KT 06/01 A3031 RMK A01 T00620014  RH  071%=      5-min Rain = 0
KBI1 141759Z 16010KT 06/01 A3031 RMK A01 T00630012  RH  070%=      5-min Rain = 0
KBI1 141800Z 17009KT 06/01 A3031 RMK A01 T00600010  RH  070%=      5-min Rain = 0
KBI1 141801Z 17009KT 06/01 A3031 RMK A01 T00590012  RH  072%=      5-min Rain = 0
KBI1 141802Z 17014G19KT 06/01 A3031 RMK A01 T00600013  RH  072%=      5-min Rain = 0
KBI1 141803Z 18016KT 06/02 A303 RMK A01 T00630015  RH  071%=      5-min Rain = 0
KBI1 141804Z 18013KT 06/01 A3031 RMK A01 T00630013  RH  070%=      5-min Rain = 0
KBI1 141805Z 18014KT 07/02 A3031 RMK A01 T00650015  RH  070%=      5-min Rain = 0
KBI1 141806Z 16012KT 07/02 A3031 RMK A01 T00670015  RH  070%=      5-min Rain = 0
KBI1 141807Z 16012KT 07/02 A303 RMK A01 T00690015  RH  069%=      5-min Rain = 0
KBI1 141808Z 16011KT 07/02 A303 RMK A01 T00690015  RH  068%=      5-min Rain = 0
KBI1 141809Z 16013KT 07/01 A303 RMK A01 T00700014  RH  068%=      5-min Rain = 0
KBI1 141810Z 15012KT 07/01 A303 RMK A01 T00690013  RH  067%=      5-min Rain = 0
KBI1 141811Z 17009KT 07/01 A303 RMK A01 T00680012  RH  068%=      5-min Rain = 0
KBI1 141812Z 17011KT 07/02 A303 RMK A01 T00690016  RH  069%=      5-min Rain = 0
KBI1 141813Z 16011KT 07/02 A303 RMK A01 T00700015  RH  068%=      5-min Rain = 0
KBI1 141814Z 16010G15KT 07/01 A303 RMK A01 T00690014  RH  068%=      5-min Rain = 0
KBI1 141815Z 17012KT 07/01 A303 RMK A01 T00690013  RH  068%=      5-min Rain = 0
KBI1 141816Z 16011KT 07/01 A303 RMK A01 T00690014  RH  068%=      5-min Rain = 0
KBI1 141817Z 17012KT 07/01 A303 RMK A01 T00690014  RH  068%=      5-min Rain = 0
KBI1 141818Z 18015KT 07/01 A303 RMK A01 T00690014  RH  068%=      5-min Rain = 0
KBI1 141819Z 18012KT 07/02 A303 RMK A01 T00700016  RH  068%=      5-min Rain = 0
KBI1 141820Z 18013KT 07/02 A303 RMK A01 T00720018  RH  068%=      5-min Rain = 0
KBI1 141821Z 18013KT 08/02 A303 RMK A01 T00750018  RH  067%=      5-min Rain = 0
KBI1 141822Z 18010KT 07/01 A303 RMK A01 T00740014  RH  066%=      5-min Rain = 0
KBI1 141823Z 15007KT 07/02 A303 RMK A01 T00730016  RH  067%=      5-min Rain = 0
KBI1 141824Z 17012KT 08/02 A303 RMK A01 T00750018  RH  067%=      5-min Rain = 0
KBI1 141825Z 17016KT 08/02 A303 RMK A01 T00770018  RH  066%=      5-min Rain = 0
KBI1 141826Z 17014KT 08/02 A303 RMK A01 T00770015  RH  065%=      5-min Rain = 0
KBI1 141827Z 17011KT 07/01 A3029 RMK A01 T00740013  RH  066%=      5-min Rain = 0
KBI1 141828Z 16009KT 07/02 A3029 RMK A01 T00730017  RH  067%=      5-min Rain = 0
KBI1 141829Z 16008KT 08/02 A3029 RMK A01 T00750017  RH  067%=      5-min Rain = 0
KBI1 141830Z 16010G16KT 08/02 A3029 RMK A01 T00760017  RH  066%=      5-min Rain = 0
KBI1 141831Z 15010KT 08/02 A3029 RMK A01 T00770015  RH  065%=      5-min Rain = 0
KBI1 141832Z 18010KT 08/02 A3029 RMK A01 T00760015  RH  065%=      5-min Rain = 0
KBI1 141833Z 17010KT 08/02 A3029 RMK A01 T00790020  RH  066%=      5-min Rain = 0
KBI1 141834Z 17011G16KT 08/02 A3029 RMK A01 T00830019  RH  064%=      5-min Rain = 0
KBI1 141835Z 18012KT 08/02 A3029 RMK A01 T00830019  RH  064%=      5-min Rain = 0
KBI1 141836Z 18014KT 09/02 A3029 RMK A01 T00860020  RH  063%=      5-min Rain = 0
KBI1 141837Z 18013KT 08/02 A3029 RMK A01 T00830016  RH  063%=      5-min Rain = 0
KBI1 141838Z 17011G16KT 08/02 A3029 RMK A01 T00830019  RH  064%=      5-min Rain = 0
KBI1 141839Z 16013KT 08/02 A3029 RMK A01 T00840018  RH  063%=      5-min Rain = 0
KBI1 141840Z 17014KT 08/02 A3029 RMK A01 T00820015  RH  063%=      5-min Rain = 0
KBI1 141841Z 17011KT 08/02 A3029 RMK A01 T00810016  RH  064%=      5-min Rain = 0
KBI1 141842Z 17012KT 08/02 A3029 RMK A01 T00820019  RH  064%=      5-min Rain = 0
KBI1 141843Z 17014G19KT 08/02 A3029 RMK A01 T00840018  RH  063%=      5-min Rain = 0
KBI1 141844Z 17017KT 08/02 A3028 RMK A01 T00810015  RH  063%=      5-min Rain = 0
KBI1 141845Z 17013KT 08/02 A3029 RMK A01 T00800015  RH  064%=      5-min Rain = 0
KBI1 141846Z 16012KT 08/02 A3028 RMK A01 T00800016  RH  064%=      5-min Rain = 0
KBI1 141847Z 17010KT 08/02 A3028 RMK A01 T00790016  RH  065%=      5-min Rain = 0
KBI1 141848Z 18016KT 08/02 A3028 RMK A01 T00840022  RH  065%=      5-min Rain = 0
KBI1 141849Z 17015KT 09/02 A3028 RMK A01 T00860018  RH  063%=      5-min Rain = 0
KBI1 141850Z 17015KT 08/01 A3028 RMK A01 T00810014  RH  063%=      5-min Rain = 0
KBI1 141851Z 17009KT 08/02 A3028 RMK A01 T00800016  RH  064%=      5-min Rain = 0
KBI1 141852Z 17012KT 08/02 A3028 RMK A01 T00830019  RH  064%=      5-min Rain = 0
KBI1 141853Z 17011KT 08/02 A3028 RMK A01 T00830016  RH  063%=      5-min Rain = 0
KBI1 141854Z 15011KT 08/02 A3028 RMK A01 T00820017  RH  064%=      5-min Rain = 0
KBI1 141855Z 14010KT 08/02 A3028 RMK A01 T00830016  RH  063%=      5-min Rain = 0
KBI1 141856Z 17009KT 08/02 A3028 RMK A01 T00830018  RH  064%=      5-min Rain = 0
KBI1 141857Z 16012KT 09/02 A3028 RMK A01 T00860020  RH  063%=      5-min Rain = 0
KBI1 141858Z 18010KT 09/02 A3028 RMK A01 T00880020  RH  062%=      5-min Rain = 0
KBI1 141859Z 17012G18KT 09/02 A3028 RMK A01 T00900022  RH  062%=      5-min Rain = 0
KBI1 141900Z 18016KT 09/02 A3028 RMK A01 T00900019  RH  061%=      5-min Rain = 0
KBI1 141901Z 18015KT 09/02 A3028 RMK A01 T00890018  RH  061%=      5-min Rain = 0
KBI1 141902Z 17013KT 09/02 A3028 RMK A01 T00880019  RH  062%=      5-min Rain = 0
KBI1 141903Z 17012KT 09/02 A3028 RMK A01 T00880019  RH  062%=      5-min Rain = 0
KBI1 141904Z 18013KT 09/02 A3028 RMK A01 T00900019  RH  061%=      5-min Rain = 0
KBI1 141905Z 18013KT 09/02 A3027 RMK A01 T00890018  RH  061%=      5-min Rain = 0
KBI1 141906Z 18013KT 09/02 A3027 RMK A01 T00890020  RH  062%=      5-min Rain = 0
KBI1 141907Z 17013G18KT 09/02 A3027 RMK A01 T00920023  RH  062%=      5-min Rain = 0
KBI1 141908Z 16010KT 10/02 A3027 RMK A01 T00950021  RH  060%=      5-min Rain = 0
KBI1 141909Z 16012KT 09/02 A3027 RMK A01 T00930019  RH  060%=      5-min Rain = 0
KBI1 141910Z 15010G15KT 09/02 A3027 RMK A01 T00900017  RH  060%=      5-min Rain = 0
KBI1 141911Z 16013KT 09/02 A3027 RMK A01 T00910021  RH  062%=      5-min Rain = 0
KBI1 141912Z 17013KT 09/02 A3027 RMK A01 T00930020  RH  060%=      5-min Rain = 0
KBI1 141913Z 16012KT 09/02 A3027 RMK A01 T00930022  RH  061%=      5-min Rain = 0
KBI1 141914Z 16008KT 10/02 A3027 RMK A01 T00950020  RH  060%=      5-min Rain = 0
KBI1 141915Z 15009KT 09/02 A3027 RMK A01 T00930018  RH  059%=      5-min Rain = 0
KBI1 141916Z 16009KT 09/02 A3027 RMK A01 T00910018  RH  060%=      5-min Rain = 0
KBI1 141917Z 17013KT 09/02 A3027 RMK A01 T00940024  RH  062%=      5-min Rain = 0
KBI1 141918Z 18010KT 10/03 A3027 RMK A01 T00980025  RH  060%=      5-min Rain = 0
KBI1 141919Z 16014KT 10/03 A3027 RMK A01 T01010025  RH  059%=      5-min Rain = 0
KBI1 141920Z 15012KT 10/02 A3027 RMK A01 T00990022  RH  059%=      5-min Rain = 0
KBI1 141921Z 15010G15KT 10/02 A3027 RMK A01 T00960019  RH  059%=      5-min Rain = 0
KBI1 141922Z 16011KT 10/02 A3027 RMK A01 T00950022  RH  060%=      5-min Rain = 0
KBI1 141923Z 18012KT 10/03 A3027 RMK A01 T00990026  RH  060%=      5-min Rain = 0
KBI1 141924Z 18011KT 10/03 A3026 RMK A01 T01010025  RH  059%=      5-min Rain = 0
KBI1 141925Z 18009KT 10/03 A3027 RMK A01 T01020025  RH  059%=      5-min Rain = 0
KBI1 141926Z 15010KT 10/03 A3027 RMK A01 T01020026  RH  059%=      5-min Rain = 0
KBI1 141927Z 15008G13KT 10/02 A3026 RMK A01 T01020024  RH  058%=      5-min Rain = 0
KBI1 141928Z 16012KT 10/03 A3026 RMK A01 T01020025  RH  059%=      5-min Rain = 0
KBI1 141929Z 16014KT 10/03 A3026 RMK A01 T01020025  RH  059%=      5-min Rain = 0
KBI1 141930Z 17013KT 10/02 A3026 RMK A01 T00980021  RH  059%=      5-min Rain = 0
KBI1 141931Z 18013KT 10/02 A3026 RMK A01 T00960023  RH  060%=      5-min Rain = 0
KBI1 141932Z 19012KT 10/02 A3026 RMK A01 T00950024  RH  061%=      5-min Rain = 0
KBI1 141933Z 18015KT 10/03 A3026 RMK A01 T00960025  RH  061%=      5-min Rain = 0
KBI1 141934Z 17014KT 10/03 A3026 RMK A01 T00970025  RH  061%=      5-min Rain = 0
KBI1 141935Z 15014KT 10/02 A3026 RMK A01 T00970023  RH  060%=      5-min Rain = 0
KBI1 141936Z 15015KT 10/02 A3026 RMK A01 T00950022  RH  060%=      5-min Rain = 0
KBI1 141937Z 16014KT 09/02 A3026 RMK A01 T00930023  RH  062%=      5-min Rain = 0
KBI1 141938Z 16012KT 09/02 A3026 RMK A01 T00940024  RH  062%=      5-min Rain = 0
KBI1 141939Z 17011KT 09/02 A3026 RMK A01 T00940024  RH  062%=      5-min Rain = 0
KBI1 141940Z 17010KT 10/03 A3026 RMK A01 T00950026  RH  062%=      5-min Rain = 0
KBI1 141941Z 17014KT 10/03 A3026 RMK A01 T00970026  RH  061%=      5-min Rain = 0
KBI1 141942Z 18013KT 10/03 A3026 RMK A01 T00990029  RH  062%=      5-min Rain = 0
KBI1 141943Z 17014KT 10/03 A3026 RMK A01 T01020028  RH  060%=      5-min Rain = 0
KBI1 141944Z 17012KT 10/03 A3026 RMK A01 T01010026  RH  060%=      5-min Rain = 0
KBI1 141945Z 17013KT 10/03 A3026 RMK A01 T00980025  RH  061%=      5-min Rain = 0
KBI1 141946Z 17006KT 10/03 A3026 RMK A01 T00980028  RH  062%=      5-min Rain = 0
KBI1 141947Z 15008G13KT 10/03 A3026 RMK A01 T01010031  RH  061%=      5-min Rain = 0
KBI1 141948Z 17010KT 10/03 A3026 RMK A01 T01030030  RH  060%=      5-min Rain = 0
KBI1 141949Z 17012KT 10/03 A3025 RMK A01 T01030028  RH  059%=      5-min Rain = 0
KBI1 141950Z 18010KT 10/03 A3025 RMK A01 T01010026  RH  060%=      5-min Rain = 0
KBI1 141951Z 17013KT 10/03 A3025 RMK A01 T01000027  RH  061%=      5-min Rain = 0
KBI1 141952Z 17009KT 10/03 A3025 RMK A01 T00990027  RH  061%=      5-min Rain = 0
KBI1 141953Z 16008KT 10/03 A3025 RMK A01 T00990029  RH  062%=      5-min Rain = 0
KBI1 141954Z 18010KT 10/03 A3025 RMK A01 T01010029  RH  061%=      5-min Rain = 0
KBI1 141955Z 18013G18KT 10/03 A3025 RMK A01 T01030030  RH  061%=      5-min Rain = 0
KBI1 141956Z 17012KT 10/03 A3025 RMK A01 T01040030  RH  060%=      5-min Rain = 0
KBI1 141957Z 16013G19KT 11/03 A3025 RMK A01 T01050031  RH  060%=      5-min Rain = 0
KBI1 141958Z 16014G19KT 10/03 A3025 RMK A01 T01020025  RH  059%=      5-min Rain = 0
KBI1 141959Z 16014KT 10/03 A3025 RMK A01 T00980026  RH  061%=      5-min Rain = 0
KBI1 142000Z 16011KT 10/03 A3025 RMK A01 T00960026  RH  062%=      5-min Rain = 0
KBI1 142001Z 17010KT 10/03 A3025 RMK A01 T00950026  RH  062%=      5-min Rain = 0
KBI1 142002Z 17014KT 10/03 A3025 RMK A01 T00950028  RH  063%=      5-min Rain = 0
KBI1 142003Z 17011KT 10/03 A3025 RMK A01 T00960028  RH  063%=      5-min Rain = 0
KBI1 142004Z 17009KT 10/03 A3025 RMK A01 T00960027  RH  062%=      5-min Rain = 0
KBI1 142005Z 18009KT 10/03 A3025 RMK A01 T00950027  RH  063%=      5-min Rain = 0
KBI1 142006Z 16011KT 10/03 A3025 RMK A01 T00970031  RH  063%=      5-min Rain = 0
KBI1 142007Z 17012KT 10/03 A3025 RMK A01 T00980029  RH  062%=      5-min Rain = 0
KBI1 142008Z 18013KT 10/03 A3025 RMK A01 T00980028  RH  062%=      5-min Rain = 0
KBI1 142009Z 17010KT 10/03 A3025 RMK A01 T00970029  RH  063%=      5-min Rain = 0
KBI1 142010Z 16012G17KT 10/03 A3025 RMK A01 T01000032  RH  063%=      5-min Rain = 0
KBI1 142011Z 16011KT 10/03 A3025 RMK A01 T01010029  RH  061%=      5-min Rain = 0
KBI1 142012Z 15014KT 10/03 A3024 RMK A01 T01000027  RH  060%=      5-min Rain = 0
KBI1 142013Z 14011KT 10/03 A3024 RMK A01 T00980027  RH  061%=      5-min Rain = 0
KBI1 142014Z 16011KT 10/03 A3024 RMK A01 T00970026  RH  061%=      5-min Rain = 0
KBI1 142015Z 15012KT 10/03 A3024 RMK A01 T00950026  RH  062%=      5-min Rain = 0
KBI1 142016Z 15010KT 10/03 A3024 RMK A01 T00950027  RH  063%=      5-min Rain = 0
KBI1 142017Z 15010KT 09/03 A3024 RMK A01 T00940026  RH  062%=      5-min Rain = 0
KBI1 142018Z 15006KT 09/03 A3024 RMK A01 T00930027  RH  064%=      5-min Rain = 0
KBI1 142019Z 15007G12KT 10/03 A3024 RMK A01 T00960032  RH  064%=      5-min Rain = 0
KBI1 142020Z 16009KT 10/03 A3024 RMK A01 T00990032  RH  063%=      5-min Rain = 0
KBI1 142021Z 17014KT 10/03 A3024 RMK A01 T01030033  RH  062%=      5-min Rain = 0
KBI1 142022Z 17015KT 10/03 A3024 RMK A01 T01030030  RH  061%=      5-min Rain = 0
KBI1 142023Z 17015KT 10/03 A3024 RMK A01 T01010027  RH  060%=      5-min Rain = 0
KBI1 142024Z 18016KT 10/03 A3024 RMK A01 T00980028  RH  061%=      5-min Rain = 0
KBI1 142025Z 17012G17KT 10/03 A3024 RMK A01 T00970028  RH  062%=      5-min Rain = 0
KBI1 142026Z 16015KT 10/03 A3024 RMK A01 T00980029  RH  062%=      5-min Rain = 0
KBI1 142027Z 17011G16KT 10/03 A3024 RMK A01 T00980029  RH  062%=      5-min Rain = 0
KBI1 142028Z 16014KT 10/03 A3024 RMK A01 T00980029  RH  062%=      5-min Rain = 0
KBI1 142029Z 17011KT 10/03 A3024 RMK A01 T00990031  RH  063%=      5-min Rain = 0
KBI1 142030Z 16009KT 10/03 A3023 RMK A01 T01000030  RH  062%=      5-min Rain = 0
KBI1 142031Z 18011KT 10/03 A3023 RMK A01 T01010032  RH  062%=      5-min Rain = 0
KBI1 142032Z 17009KT 10/03 A3023 RMK A01 T01030033  RH  062%=      5-min Rain = 0
KBI1 142033Z 17011KT 11/03 A3023 RMK A01 T01050033  RH  061%=      5-min Rain = 0
KBI1 142034Z 18014KT 11/03 A3023 RMK A01 T01050032  RH  060%=      5-min Rain = 0
KBI1 142035Z 18011KT 10/03 A3023 RMK A01 T01030030  RH  060%=      5-min Rain = 0
KBI1 142036Z 18010KT 10/03 A3023 RMK A01 T01030032  RH  061%=      5-min Rain = 0
KBI1 142037Z 18012KT 10/03 A3023 RMK A01 T01040031  RH  061%=      5-min Rain = 0
KBI1 142038Z 17012KT 11/03 A3023 RMK A01 T01050033  RH  061%=      5-min Rain = 0
KBI1 142039Z 17016KT 11/03 A3023 RMK A01 T01070032  RH  060%=      5-min Rain = 0
KBI1 142040Z 16012KT 10/03 A3023 RMK A01 T01040029  RH  060%=      5-min Rain = 0
KBI1 142041Z 16010KT 10/03 A3023 RMK A01 T01010030  RH  061%=      5-min Rain = 0
KBI1 142042Z 17008KT 10/03 A3023 RMK A01 T01010031  RH  062%=      5-min Rain = 0
KBI1 142043Z 16008G14KT 10/04 A3023 RMK A01 T01040035  RH  062%=      5-min Rain = 0
KBI1 142044Z 16009KT 11/03 A3023 RMK A01 T01070031  RH  059%=      5-min Rain = 0
KBI1 142045Z 18012KT 10/03 A3023 RMK A01 T01030029  RH  060%=      5-min Rain = 0
KBI1 142046Z 18013KT 10/03 A3023 RMK A01 T01040031  RH  061%=      5-min Rain = 0
KBI1 142047Z 18013KT 11/03 A3023 RMK A01 T01070034  RH  061%=      5-min Rain = 0
KBI1 142048Z 18015KT 11/03 A3023 RMK A01 T01060031  RH  059%=      5-min Rain = 0
KBI1 142049Z 16014KT 11/03 A3023 RMK A01 T01050031  RH  060%=      5-min Rain = 0
KBI1 142050Z 16013G18KT 11/03 A3023 RMK A01 T01050031  RH  060%=      5-min Rain = 0
KBI1 142051Z 16010KT 10/03 A3023 RMK A01 T01030030  RH  060%=      5-min Rain = 0
KBI1 142052Z 15010KT 11/03 A3023 RMK A01 T01050033  RH  061%=      5-min Rain = 0
KBI1 142053Z 15009KT 11/03 A3023 RMK A01 T01060032  RH  060%=      5-min Rain = 0
KBI1 142054Z 15011KT 11/03 A3022 RMK A01 T01060030  RH  059%=      5-min Rain = 0
KBI1 142055Z 17009G17KT 10/03 A3022 RMK A01 T01020029  RH  060%=      5-min Rain = 0
KBI1 142056Z 17016KT 10/03 A3022 RMK A01 T01030031  RH  061%=      5-min Rain = 0
KBI1 142057Z 17015KT 10/03 A3022 RMK A01 T01030030  RH  060%=      5-min Rain = 0
KBI1 142058Z 17013G18KT 10/03 A3022 RMK A01 T01020030  RH  061%=      5-min Rain = 0
KBI1 142059Z 18012KT 10/03 A3022 RMK A01 T01030032  RH  061%=      5-min Rain = 0
KBI1 142100Z 17013KT 10/03 A3022 RMK A01 T01040031  RH  061%=      5-min Rain = 0
KBI1 142101Z 17013G18KT 11/03 A3022 RMK A01 T01060033  RH  061%=      5-min Rain = 0
KBI1 142102Z 18015KT 11/03 A3022 RMK A01 T01060030  RH  059%=      5-min Rain = 0
KBI1 142103Z 18012KT 10/03 A3022 RMK A01 T01040031  RH  061%=      5-min Rain = 0
KBI1 142104Z 17013KT 11/03 A3022 RMK A01 T01050032  RH  060%=      5-min Rain = 0
KBI1 142105Z 15010G16KT 10/03 A3022 RMK A01 T01040029  RH  060%=      5-min Rain = 0
KBI1 142106Z 16011KT 11/03 A3022 RMK A01 T01060034  RH  061%=      5-min Rain = 0
KBI1 142107Z 17010KT 11/03 A3022 RMK A01 T01080033  RH  060%=      5-min Rain = 0
KBI1 142108Z 18010KT 11/04 A3022 RMK A01 T01100036  RH  060%=      5-min Rain = 0
KBI1 142109Z 18013KT 11/04 A3022 RMK A01 T01120035  RH  059%=      5-min Rain = 0
KBI1 142110Z 17012KT 11/03 A3022 RMK A01 T01120033  RH  058%=      5-min Rain = 0
KBI1 142111Z 16014G19KT 11/03 A3022 RMK A01 T01110032  RH  058%=      5-min Rain = 0
KBI1 142112Z 16013KT 11/03 A3022 RMK A01 T01080031  RH  059%=      5-min Rain = 0
KBI1 142113Z 15009G14KT 11/03 A3021 RMK A01 T01070031  RH  060%=      5-min Rain = 0
KBI1 142114Z 15010G16KT 11/03 A3021 RMK A01 T01090034  RH  060%=      5-min Rain = 0
KBI1 142115Z 15009KT 11/03 A3021 RMK A01 T01110031  RH  058%=      5-min Rain = 0
KBI1 142116Z 15010KT 11/03 A3021 RMK A01 T01090031  RH  058%=      5-min Rain = 0
KBI1 142117Z 15009KT 11/03 A3021 RMK A01 T01080030  RH  059%=      5-min Rain = 0
KBI1 142118Z 15012KT 11/03 A3021 RMK A01 T01080031  RH  059%=      5-min Rain = 0
KBI1 142119Z 15012KT 11/03 A3021 RMK A01 T01090031  RH  058%=      5-min Rain = 0
KBI1 142120Z 16014KT 11/03 A3021 RMK A01 T01100030  RH  058%=      5-min Rain = 0
KBI1 142121Z 16011KT 11/03 A3021 RMK A01 T01100031  RH  058%=      5-min Rain = 0
KBI1 142122Z 16010KT 11/03 A3021 RMK A01 T01100032  RH  059%=      5-min Rain = 0
KBI1 142123Z 17010KT 11/03 A3021 RMK A01 T01100032  RH  059%=      5-min Rain = 0
KBI1 142124Z 15008KT 11/03 A3021 RMK A01 T01110034  RH  059%=      5-min Rain = 0
KBI1 142125Z 16013KT 11/03 A3021 RMK A01 T01110033  RH  058%=      5-min Rain = 0
KBI1 142126Z 15010KT 11/03 A3021 RMK A01 T01110031  RH  058%=      5-min Rain = 0
KBI1 142127Z 15010KT 11/03 A3021 RMK A01 T01100032  RH  059%=      5-min Rain = 0
KBI1 142128Z 16011KT 11/03 A3021 RMK A01 T01100032  RH  059%=      5-min Rain = 0
KBI1 142129Z 16014KT 11/03 A3021 RMK A01 T01100033  RH  059%=      5-min Rain = 0
KBI1 142130Z 16012G18KT 11/03 A3021 RMK A01 T01110031  RH  058%=      5-min Rain = 0
KBI1 142131Z 17012KT 11/03 A3021 RMK A01 T01100032  RH  058%=      5-min Rain = 0
KBI1 142132Z 16011KT 11/04 A302 RMK A01 T01130035  RH  059%=      5-min Rain = 0
KBI1 142133Z 16012KT 11/03 A3021 RMK A01 T01140033  RH  057%=      5-min Rain = 0
KBI1 142134Z 15011KT 11/03 A302 RMK A01 T01130032  RH  058%=      5-min Rain = 0
KBI1 142135Z 16011G17KT 11/03 A302 RMK A01 T01140034  RH  058%=      5-min Rain = 0
KBI1 142136Z 15011G17KT 11/03 A302 RMK A01 T01140032  RH  057%=      5-min Rain = 0
KBI1 142137Z 16013KT 11/03 A302 RMK A01 T01140031  RH  056%=      5-min Rain = 0
KBI1 142138Z 16014KT 11/03 A302 RMK A01 T01140030  RH  056%=      5-min Rain = 0
KBI1 142139Z 17014KT 11/03 A302 RMK A01 T01130030  RH  057%=      5-min Rain = 0
KBI1 142140Z 17015KT 11/03 A302 RMK A01 T01120030  RH  057%=      5-min Rain = 0
KBI1 142141Z 16016KT 11/03 A302 RMK A01 T01140032  RH  057%=      5-min Rain = 0
KBI1 142142Z 17016KT 11/03 A302 RMK A01 T01130030  RH  057%=      5-min Rain = 0
KBI1 142143Z 16014KT 11/03 A302 RMK A01 T01130030  RH  057%=      5-min Rain = 0
KBI1 142144Z 16013KT 11/03 A302 RMK A01 T01130031  RH  057%=      5-min Rain = 0
KBI1 142145Z 16009KT 11/03 A302 RMK A01 T01120031  RH  057%=      5-min Rain = 0
KBI1 142146Z 16008KT 11/04 A302 RMK A01 T01140035  RH  058%=      5-min Rain = 0
KBI1 142147Z 17010G16KT 12/03 A302 RMK A01 T01170034  RH  057%=      5-min Rain = 0
KBI1 142148Z 16011G16KT 12/03 A302 RMK A01 T01180033  RH  056%=      5-min Rain = 0
KBI1 142149Z 17010KT 12/03 A302 RMK A01 T01180034  RH  056%=      5-min Rain = 0
KBI1 142150Z 16015KT 12/03 A302 RMK A01 T01200034  RH  056%=      5-min Rain = 0
KBI1 142151Z 15014KT 12/03 A302 RMK A01 T01200031  RH  054%=      5-min Rain = 0
KBI1 142152Z 16011G16KT 12/03 A302 RMK A01 T01170030  RH  055%=      5-min Rain = 0
KBI1 142153Z 17014KT 12/03 A302 RMK A01 T01170030  RH  055%=      5-min Rain = 0
KBI1 142154Z 16012KT 12/03 A302 RMK A01 T01170031  RH  056%=      5-min Rain = 0
KBI1 142155Z 17015KT 12/03 A302 RMK A01 T01180032  RH  056%=      5-min Rain = 0
KBI1 142156Z 17013KT 12/03 A302 RMK A01 T01200033  RH  055%=      5-min Rain = 0
KBI1 142157Z 17010KT 12/03 A302 RMK A01 T01210033  RH  055%=      5-min Rain = 0
KBI1 142158Z 17014KT 12/03 A3019 RMK A01 T01230034  RH  055%=      5-min Rain = 0
KBI1 142159Z 16014G20KT 12/03 A3019 RMK A01 T01230033  RH  054%=      5-min Rain = 0
KBI1 142200Z 16013KT 12/03 A302 RMK A01 T01230033  RH  054%=      5-min Rain = 0
KBI1 142201Z 15013KT 12/03 A3019 RMK A01 T01220031  RH  054%=      5-min Rain = 0
KBI1 142202Z 15010G16KT 12/03 A3019 RMK A01 T01200030  RH  054%=      5-min Rain = 0
KBI1 142203Z 16011G16KT 12/03 A3019 RMK A01 T01190032  RH  055%=      5-min Rain = 0
KBI1 142204Z 17013KT 12/03 A3019 RMK A01 T01210032  RH  055%=      5-min Rain = 0
KBI1 142205Z 17014KT 12/03 A3019 RMK A01 T01220033  RH  054%=      5-min Rain = 0
KBI1 142206Z 17016KT 12/03 A3019 RMK A01 T01220032  RH  054%=      5-min Rain = 0
KBI1 142207Z 16014G19KT 12/03 A3019 RMK A01 T01220032  RH  054%=      5-min Rain = 0
KBI1 142208Z 16012KT 12/03 A3019 RMK A01 T01220030  RH  054%=      5-min Rain = 0
KBI1 142209Z 16010KT 12/03 A3019 RMK A01 T01210032  RH  054%=      5-min Rain = 0
KBI1 142210Z 14011KT 12/03 A302 RMK A01 T01230033  RH  054%=      5-min Rain = 0
KBI1 142211Z 16012KT 12/03 A3019 RMK A01 T01230032  RH  054%=      5-min Rain = 0
KBI1 142212Z 17014KT 12/03 A3019 RMK A01 T01220032  RH  054%=      5-min Rain = 0
KBI1 142213Z 16014KT 12/03 A3019 RMK A01 T01220032  RH  054%=      5-min Rain = 0
KBI1 142214Z 16014KT 12/03 A3019 RMK A01 T01230031  RH  054%=      5-min Rain = 0
KBI1 142215Z 15013G18KT 12/03 A3019 RMK A01 T01220031  RH  054%=      5-min Rain = 0
KBI1 142216Z 16013KT 12/03 A3019 RMK A01 T01220032  RH  054%=      5-min Rain = 0
KBI1 142217Z 16012KT 12/03 A3019 RMK A01 T01230033  RH  054%=      5-min Rain = 0
KBI1 142218Z 15010KT 12/03 A3019 RMK A01 T01220033  RH  054%=      5-min Rain = 0
KBI1 142219Z 16011KT 12/03 A3019 RMK A01 T01230033  RH  054%=      5-min Rain = 0
KBI1 142220Z 15014KT 13/03 A3019 RMK A01 T01250033  RH  054%=      5-min Rain = 0
KBI1 142221Z 14011KT 13/03 A3019 RMK A01 T01250032  RH  053%=      5-min Rain = 0
KBI1 142222Z 16012KT 13/03 A3019 RMK A01 T01250033  RH  053%=      5-min Rain = 0
KBI1 142223Z 16010G16KT 13/03 A3019 RMK A01 T01260033  RH  053%=      5-min Rain = 0
KBI1 142224Z 15011KT 13/03 A3019 RMK A01 T01270032  RH  053%=      5-min Rain = 0
KBI1 142225Z 16012KT 13/03 A3019 RMK A01 T01270032  RH  053%=      5-min Rain = 0
KBI1 142226Z 17015KT 13/03 A3019 RMK A01 T01250031  RH  053%=      5-min Rain = 0
KBI1 142227Z 17015KT 13/03 A3019 RMK A01 T01250032  RH  053%=      5-min Rain = 0
KBI1 142228Z 17016KT 13/03 A3019 RMK A01 T01250032  RH  053%=      5-min Rain = 0
KBI1 142229Z 16013KT 13/03 A3019 RMK A01 T01250032  RH  053%=      5-min Rain = 0
KBI1 142230Z 14010KT 13/03 A3019 RMK A01 T01250032  RH  053%=      5-min Rain = 0
KBI1 142231Z 14012KT 13/03 A3019 RMK A01 T01260031  RH  052%=      5-min Rain = 0
KBI1 142232Z 15009KT 13/03 A3019 RMK A01 T01260031  RH  053%=      5-min Rain = 0
KBI1 142233Z 15012G19KT 13/03 A3019 RMK A01 T01260030  RH  052%=      5-min Rain = 0
KBI1 142234Z 15012G17KT 13/03 A3019 RMK A01 T01250030  RH  052%=      5-min Rain = 0
KBI1 142235Z 15013G21KT 13/03 A3019 RMK A01 T01250030  RH  053%=      5-min Rain = 0
KBI1 142236Z 15012KT 13/03 A3019 RMK A01 T01250030  RH  053%=      5-min Rain = 0
KBI1 142237Z 14011KT 13/03 A3019 RMK A01 T01250032  RH  053%=      5-min Rain = 0
KBI1 142238Z 15012G17KT 13/03 A3018 RMK A01 T01270031  RH  052%=      5-min Rain = 0
KBI1 142239Z 15012G18KT 13/03 A3018 RMK A01 T01270031  RH  052%=      5-min Rain = 0
KBI1 142240Z 15011G16KT 13/03 A3018 RMK A01 T01280031  RH  052%=      5-min Rain = 0
KBI1 142241Z 15014KT 13/03 A3018 RMK A01 T01270029  RH  051%=      5-min Rain = 0
KBI1 142242Z 17010G16KT 13/03 A3019 RMK A01 T01250030  RH  052%=      5-min Rain = 0
KBI1 142243Z 16014KT 13/03 A3018 RMK A01 T01260032  RH  053%=      5-min Rain = 0
KBI1 142244Z 16012KT 13/03 A3019 RMK A01 T01270031  RH  052%=      5-min Rain = 0
KBI1 142245Z 17017KT 13/03 A3018 RMK A01 T01280032  RH  052%=      5-min Rain = 0
KBI1 142246Z 17017KT 13/03 A3018 RMK A01 T01270031  RH  052%=      5-min Rain = 0
KBI1 142247Z 16013G18KT 13/03 A3018 RMK A01 T01260032  RH  053%=      5-min Rain = 0
KBI1 142248Z 15012KT 13/03 A3019 RMK A01 T01270033  RH  053%=      5-min Rain = 0
KBI1 142249Z 16013KT 13/03 A3018 RMK A01 T01280031  RH  052%=      5-min Rain = 0
KBI1 142250Z 16014G19KT 13/03 A3018 RMK A01 T01270031  RH  052%=      5-min Rain = 0
KBI1 142251Z 16014KT 13/03 A3018 RMK A01 T01270031  RH  052%=      5-min Rain = 0
KBI1 142252Z 16015KT 13/03 A3018 RMK A01 T01270031  RH  052%=      5-min Rain = 0
KBI1 142253Z 16012G17KT 13/03 A3018 RMK A01 T01260031  RH  052%=      5-min Rain = 0
KBI1 142254Z 15012G17KT 13/03 A3019 RMK A01 T01260031  RH  052%=      5-min Rain = 0
KBI1 142255Z 15013KT 13/03 A3019 RMK A01 T01260030  RH  052%=      5-min Rain = 0
KBI1 142256Z 16013KT 13/03 A3019 RMK A01 T01260030  RH  052%=      5-min Rain = 0
KBI1 142257Z 14009G14KT 13/03 A3018 RMK A01 T01250030  RH  052%=      5-min Rain = 0
KBI1 142258Z 14010KT 13/03 A3018 RMK A01 T01250032  RH  053%=      5-min Rain = 0
KBI1 142259Z 14008KT 13/03 A3019 RMK A01 T01250031  RH  053%=      5-min Rain = 0
KBI1 142300Z 15008KT 13/03 A3019 RMK A01 T01260032  RH  053%=      5-min Rain = 0
KBI1 142301Z 15011KT 13/03 A3018 RMK A01 T01270032  RH  053%=      5-min Rain = 0
KBI1 142302Z 15013KT 13/03 A3019 RMK A01 T01270030  RH  052%=      5-min Rain = 0
KBI1 142303Z 15010KT 13/03 A3019 RMK A01 T01260029  RH  052%=      5-min Rain = 0
KBI1 142304Z 15012KT 13/03 A3019 RMK A01 T01250031  RH  053%=      5-min Rain = 0
KBI1 142305Z 14014KT 12/03 A3019 RMK A01 T01240030  RH  052%=      5-min Rain = 0
KBI1 142306Z 14011KT 12/03 A3018 RMK A01 T01230030  RH  053%=      5-min Rain = 0
KBI1 142307Z 14009KT 12/03 A3018 RMK A01 T01230030  RH  053%=      5-min Rain = 0
KBI1 142308Z 14009KT 12/03 A3018 RMK A01 T01240031  RH  053%=      5-min Rain = 0
KBI1 142309Z 16010KT 13/03 A3018 RMK A01 T01250032  RH  053%=      5-min Rain = 0
KBI1 142310Z 15012KT 13/03 A3018 RMK A01 T01260032  RH  053%=      5-min Rain = 0
KBI1 142311Z 16011KT 13/03 A3018 RMK A01 T01260032  RH  053%=      5-min Rain = 0
KBI1 142312Z 16009G14KT 13/03 A3018 RMK A01 T01260032  RH  053%=      5-min Rain = 0
KBI1 142313Z 15009G14KT 13/03 A3018 RMK A01 T01260032  RH  053%=      5-min Rain = 0
KBI1 142314Z 13012KT 13/03 A3018 RMK A01 T01260032  RH  053%=      5-min Rain = 0
KBI1 142315Z 15008G13KT 13/03 A3018 RMK A01 T01250032  RH  053%=      5-min Rain = 0
KBI1 142316Z 15011G18KT 13/03 A3018 RMK A01 T01250033  RH  053%=      5-min Rain = 0
KBI1 142317Z 15014G19KT 13/03 A3018 RMK A01 T01250031  RH  053%=      5-min Rain = 0
KBI1 142318Z 16015KT 12/03 A3018 RMK A01 T01240030  RH  053%=      5-min Rain = 0
KBI1 142319Z 17015KT 12/03 A3018 RMK A01 T01230030  RH  053%=      5-min Rain = 0
KBI1 142320Z 17018KT 12/03 A3018 RMK A01 T01230030  RH  053%=      5-min Rain = 0
KBI1 142321Z 16018KT 12/03 A3018 RMK A01 T01230030  RH  053%=      5-min Rain = 0
KBI1 142322Z 16014G19KT 12/03 A3018 RMK A01 T01220030  RH  053%=      5-min Rain = 0
KBI1 142323Z 17016KT 12/03 A3018 RMK A01 T01210031  RH  054%=      5-min Rain = 0
KBI1 142324Z 17014KT 12/03 A3018 RMK A01 T01220031  RH  054%=      5-min Rain = 0
KBI1 142325Z 17014KT 12/03 A3018 RMK A01 T01220031  RH  054%=      5-min Rain = 0
KBI1 142326Z 17015KT 12/03 A3018 RMK A01 T01220031  RH  054%=      5-min Rain = 0
KBI1 142327Z 17015KT 12/03 A3018 RMK A01 T01220031  RH  054%=      5-min Rain = 0
KBI1 142328Z 16014KT 12/03 A3018 RMK A01 T01210032  RH  054%=      5-min Rain = 0
KBI1 142329Z 15011KT 12/03 A3018 RMK A01 T01210032  RH  054%=      5-min Rain = 0
KBI1 142330Z 15009KT 12/03 A3018 RMK A01 T01220033  RH  054%=      5-min Rain = 0
KBI1 142331Z 15015G20KT 12/03 A3018 RMK A01 T01220033  RH  054%=      5-min Rain = 0
KBI1 142332Z 15014KT 12/03 A3018 RMK A01 T01220031  RH  054%=      5-min Rain = 0
KBI1 142333Z 15010KT 12/03 A3018 RMK A01 T01210032  RH  054%=      5-min Rain = 0
KBI1 142334Z 16013KT 12/03 A3018 RMK A01 T01210032  RH  055%=      5-min Rain = 0
KBI1 142335Z 16017G23KT 12/03 A3018 RMK A01 T01210032  RH  054%=      5-min Rain = 0
KBI1 142336Z 15012G18KT 12/03 A3018 RMK A01 T01200031  RH  054%=      5-min Rain = 0
KBI1 142337Z 16012G17KT 12/03 A3018 RMK A01 T01200032  RH  055%=      5-min Rain = 0
KBI1 142338Z 16014KT 12/03 A3018 RMK A01 T01190032  RH  055%=      5-min Rain = 0
KBI1 142339Z 16014G19KT 12/03 A3018 RMK A01 T01200032  RH  055%=      5-min Rain = 0
KBI1 142340Z 16017KT 12/03 A3018 RMK A01 T01190031  RH  055%=      5-min Rain = 0
KBI1 142341Z 16017KT 12/03 A3018 RMK A01 T01190032  RH  055%=      5-min Rain = 0
KBI1 142342Z 16015KT 12/03 A3018 RMK A01 T01190032  RH  055%=      5-min Rain = 0
KBI1 142343Z 16014G19KT 12/03 A3018 RMK A01 T01190032  RH  055%=      5-min Rain = 0
KBI1 142344Z 16012G19KT 12/03 A3018 RMK A01 T01190032  RH  055%=      5-min Rain = 0
KBI1 142345Z 15012KT 12/03 A3018 RMK A01 T01190033  RH  056%=      5-min Rain = 0
KBI1 142346Z 15011G16KT 12/03 A3018 RMK A01 T01180032  RH  056%=      5-min Rain = 0
KBI1 142347Z 16012KT 12/03 A3018 RMK A01 T01180033  RH  056%=      5-min Rain = 0
KBI1 142348Z 16010KT 12/03 A3018 RMK A01 T01180033  RH  056%=      5-min Rain = 0
KBI1 142349Z 15008KT 12/03 A3018 RMK A01 T01180033  RH  056%=      5-min Rain = 0
KBI1 142350Z 15008KT 12/03 A3018 RMK A01 T01180034  RH  056%=      5-min Rain = 0
KBI1 142351Z 15010G15KT 12/03 A3018 RMK A01 T01180034  RH  056%=      5-min Rain = 0
KBI1 142352Z 15008G13KT 12/03 A3018 RMK A01 T01180034  RH  056%=      5-min Rain = 0
KBI1 142353Z 15008G14KT 12/04 A3018 RMK A01 T01180035  RH  057%=      5-min Rain = 0
KBI1 142354Z 15011G16KT 12/04 A3018 RMK A01 T01180035  RH  057%=      5-min Rain = 0
KBI1 142355Z 15012G19KT 12/03 A3018 RMK A01 T01180034  RH  056%=      5-min Rain = 0
KBI1 142356Z 15012KT 12/03 A3018 RMK A01 T01180033  RH  056%=      5-min Rain = 0
KBI1 142357Z 15010KT 12/03 A3018 RMK A01 T01170034  RH  057%=      5-min Rain = 0
KBI1 142358Z 15010KT 12/03 A3018 RMK A01 T01170034  RH  057%=      5-min Rain = 0
KBI1 142359Z 15011KT 12/03 A3018 RMK A01 T01160033  RH  057%=      5-min Rain = 0
KBI1 150000Z 15012KT 12/03 A3018 RMK A01 T01160034  RH  057%=      5-min Rain = 0
KBI1 150001Z 15010G15KT 12/03 A3018 RMK A01 T01160034  RH  057%=      5-min Rain = 0
KBI1 150002Z 15013KT 12/03 A3018 RMK A01 T01160034  RH  057%=      5-min Rain = 0
KBI1 150003Z 15010KT 12/03 A3018 RMK A01 T01150033  RH  057%=      5-min Rain = 0
KBI1 150004Z 15010KT 12/03 A3018 RMK A01 T01150034  RH  057%=      5-min Rain = 0
KBI1 150005Z 16010KT 12/03 A3018 RMK A01 T01150034  RH  058%=      5-min Rain = 0
KBI1 150006Z 15010G16KT 12/03 A3018 RMK A01 T01150034  RH  058%=      5-min Rain = 0
KBI1 150007Z 15012KT 12/03 A3018 RMK A01 T01150033  RH  057%=      5-min Rain = 0
KBI1 150008Z 15011KT 11/03 A3018 RMK A01 T01140033  RH  057%=      5-min Rain = 0
KBI1 150009Z 16014KT 11/03 A3018 RMK A01 T01140033  RH  058%=      5-min Rain = 0
KBI1 150010Z 15012KT 11/03 A3018 RMK A01 T01140033  RH  058%=      5-min Rain = 0
KBI1 150011Z 15010KT 11/03 A3018 RMK A01 T01130033  RH  058%=      5-min Rain = 0
KBI1 150012Z 14008KT 11/03 A3018 RMK A01 T01130034  RH  058%=      5-min Rain = 0
KBI1 150013Z 14007KT 11/04 A3018 RMK A01 T01130035  RH  059%=      5-min Rain = 0
KBI1 150014Z 15008KT 11/03 A3018 RMK A01 T01120034  RH  059%=      5-min Rain = 0
KBI1 150015Z 14008KT 11/03 A3018 RMK A01 T01120034  RH  059%=      5-min Rain = 0
KBI1 150016Z 14008KT 11/03 A3018 RMK A01 T01110034  RH  059%=      5-min Rain = 0
KBI1 150017Z 15009KT 11/03 A3018 RMK A01 T01100034  RH  059%=      5-min Rain = 0
KBI1 150018Z 15006KT 11/03 A3019 RMK A01 T01090034  RH  060%=      5-min Rain = 0
KBI1 150019Z 14009KT 11/03 A3019 RMK A01 T01080034  RH  060%=      5-min Rain = 0
KBI1 150020Z 15008KT 11/03 A3019 RMK A01 T01080034  RH  060%=      5-min Rain = 0
KBI1 150021Z 15009KT 11/03 A3019 RMK A01 T01080034  RH  060%=      5-min Rain = 0
KBI1 150022Z 15009G15KT 11/03 A3019 RMK A01 T01070034  RH  060%=      5-min Rain = 0
KBI1 150023Z 15009KT 11/03 A3019 RMK A01 T01070034  RH  060%=      5-min Rain = 0
KBI1 150024Z 15009KT 11/03 A3019 RMK A01 T01070034  RH  060%=      5-min Rain = 0
KBI1 150025Z 15006KT 11/03 A3019 RMK A01 T01070034  RH  061%=      5-min Rain = 0
KBI1 150026Z 14008KT 11/03 A3019 RMK A01 T01070034  RH  061%=      5-min Rain = 0
KBI1 150027Z 13007KT 11/03 A3019 RMK A01 T01060034  RH  061%=      5-min Rain = 0
KBI1 150028Z 14007G12KT 11/03 A3019 RMK A01 T01060034  RH  061%=      5-min Rain = 0
KBI1 150029Z 14008KT 11/03 A3019 RMK A01 T01050033  RH  061%=      5-min Rain = 0
KBI1 150030Z 14009KT 11/03 A3019 RMK A01 T01050033  RH  061%=      5-min Rain = 0
KBI1 150031Z 13009KT 11/03 A3019 RMK A01 T01050033  RH  061%=      5-min Rain = 0
KBI1 150032Z 14007KT 11/03 A3019 RMK A01 T01050033  RH  061%=      5-min Rain = 0
KBI1 150033Z 14007KT 10/03 A3019 RMK A01 T01040033  RH  061%=      5-min Rain = 0
KBI1 150034Z 14008KT 10/03 A3019 RMK A01 T01040033  RH  061%=      5-min Rain = 0
KBI1 150035Z 14009KT 10/03 A3019 RMK A01 T01030033  RH  062%=      5-min Rain = 0
KBI1 150036Z 14008KT 10/03 A3019 RMK A01 T01030033  RH  062%=      5-min Rain = 0
KBI1 150037Z 15007KT 10/03 A3019 RMK A01 T01030033  RH  062%=      5-min Rain = 0
KBI1 150038Z 14009KT 10/03 A3019 RMK A01 T01020033  RH  062%=      5-min Rain = 0
KBI1 150039Z 14008KT 10/03 A3019 RMK A01 T01020033  RH  062%=      5-min Rain = 0
KBI1 150040Z 15007KT 10/03 A3019 RMK A01 T01020033  RH  062%=      5-min Rain = 0
KBI1 150041Z 15007KT 10/03 A3019 RMK A01 T01010033  RH  063%=      5-min Rain = 0
KBI1 150042Z 14008KT 10/03 A3019 RMK A01 T01010033  RH  063%=      5-min Rain = 0
KBI1 150043Z 15009KT 10/03 A3019 RMK A01 T01000033  RH  063%=      5-min Rain = 0
KBI1 150044Z 15009KT 10/03 A3019 RMK A01 T01000033  RH  063%=      5-min Rain = 0
KBI1 150045Z 15010KT 10/03 A3019 RMK A01 T01000033  RH  063%=      5-min Rain = 0
KBI1 150046Z 16008KT 10/03 A3019 RMK A01 T01000033  RH  063%=      5-min Rain = 0
KBI1 150047Z 15012KT 10/03 A3019 RMK A01 T01000033  RH  063%=      5-min Rain = 0
KBI1 150048Z 16011KT 10/03 A3019 RMK A01 T01000033  RH  063%=      5-min Rain = 0
KBI1 150049Z 15010KT 10/03 A3019 RMK A01 T01000032  RH  063%=      5-min Rain = 0
KBI1 150050Z 16012G17KT 10/03 A3019 RMK A01 T01000032  RH  063%=      5-min Rain = 0
KBI1 150051Z 15010KT 10/03 A3019 RMK A01 T01000032  RH  063%=      5-min Rain = 0
KBI1 150052Z 15009KT 10/03 A3019 RMK A01 T00990032  RH  063%=      5-min Rain = 0
KBI1 150053Z 15010KT 10/03 A3019 RMK A01 T00990032  RH  063%=      5-min Rain = 0
KBI1 150054Z 15011KT 10/03 A3019 RMK A01 T00990032  RH  063%=      5-min Rain = 0
KBI1 150055Z 16011KT 10/03 A3019 RMK A01 T00980032  RH  063%=      5-min Rain = 0
KBI1 150056Z 16009KT 10/03 A3019 RMK A01 T00980032  RH  063%=      5-min Rain = 0
KBI1 150057Z 15011KT 10/03 A3019 RMK A01 T00980032  RH  064%=      5-min Rain = 0
KBI1 150058Z 15011KT 10/03 A3019 RMK A01 T00980032  RH  064%=      5-min Rain = 0
KBI1 150059Z 15010KT 10/03 A3019 RMK A01 T00970032  RH  064%=      5-min Rain = 0
KBI1 150100Z 16009G14KT 10/03 A3019 RMK A01 T00970032  RH  064%=      5-min Rain = 0
KBI1 150101Z 16009KT 10/03 A3019 RMK A01 T00970032  RH  064%=      5-min Rain = 0
KBI1 150102Z 16008KT 10/03 A3019 RMK A01 T00960032  RH  064%=      5-min Rain = 0
KBI1 150103Z 16010KT 10/03 A3019 RMK A01 T00960032  RH  064%=      5-min Rain = 0
KBI1 150104Z 16010KT 10/03 A3018 RMK A01 T00960032  RH  064%=      5-min Rain = 0
KBI1 150105Z 16010KT 10/03 A3019 RMK A01 T00960032  RH  064%=      5-min Rain = 0
KBI1 150106Z 15010KT 10/03 A3019 RMK A01 T00960031  RH  064%=      5-min Rain = 0
KBI1 150107Z 16010KT 10/03 A3019 RMK A01 T00960031  RH  064%=      5-min Rain = 0
KBI1 150108Z 15011KT 10/03 A3019 RMK A01 T00960032  RH  064%=      5-min Rain = 0
KBI1 150109Z 16009KT 10/03 A3019 RMK A01 T00960031  RH  064%=      5-min Rain = 0
KBI1 150110Z 16009G15KT 10/03 A3019 RMK A01 T00960031  RH  064%=      5-min Rain = 0
KBI1 150111Z 15010KT 10/03 A3019 RMK A01 T00950032  RH  064%=      5-min Rain = 0
KBI1 150112Z 16011KT 10/03 A3019 RMK A01 T00950032  RH  065%=      5-min Rain = 0
KBI1 150113Z 16009KT 10/03 A3019 RMK A01 T00950031  RH  065%=      5-min Rain = 0
KBI1 150114Z 16009KT 09/03 A3019 RMK A01 T00940031  RH  065%=      5-min Rain = 0
KBI1 150115Z 16010KT 09/03 A3019 RMK A01 T00940031  RH  065%=      5-min Rain = 0
KBI1 150116Z 16010KT 09/03 A3019 RMK A01 T00940031  RH  065%=      5-min Rain = 0
KBI1 150117Z 16009KT 09/03 A3019 RMK A01 T00930031  RH  065%=      5-min Rain = 0
KBI1 150118Z 16009KT 09/03 A3019 RMK A01 T00930031  RH  065%=      5-min Rain = 0
KBI1 150119Z 15009KT 09/03 A3019 RMK A01 T00930031  RH  065%=      5-min Rain = 0
KBI1 150120Z 16010KT 09/03 A3019 RMK A01 T00930031  RH  065%=      5-min Rain = 0
KBI1 150121Z 16008KT 09/03 A3019 RMK A01 T00930031  RH  065%=      5-min Rain = 0
KBI1 150122Z 16009KT 09/03 A3019 RMK A01 T00940031  RH  065%=      5-min Rain = 0
KBI1 150123Z 15008KT 09/03 A3019 RMK A01 T00930031  RH  065%=      5-min Rain = 0
KBI1 150124Z 16008KT 09/03 A3019 RMK A01 T00930031  RH  065%=      5-min Rain = 0
KBI1 150125Z 16008KT 09/03 A3019 RMK A01 T00920030  RH  065%=      5-min Rain = 0
KBI1 150126Z 16008KT 09/03 A302 RMK A01 T00920031  RH  065%=      5-min Rain = 0
KBI1 150127Z 15010KT 09/03 A302 RMK A01 T00910030  RH  066%=      5-min Rain = 0
KBI1 150128Z 16009G15KT 09/03 A302 RMK A01 T00910030  RH  066%=      5-min Rain = 0
KBI1 150129Z 16010KT 09/03 A302 RMK A01 T00910030  RH  066%=      5-min Rain = 0
KBI1 150130Z 16007KT 09/03 A302 RMK A01 T00920030  RH  066%=      5-min Rain = 0
KBI1 150131Z 16010KT 09/03 A302 RMK A01 T00910030  RH  066%=      5-min Rain = 0
KBI1 150132Z 16010KT 09/03 A302 RMK A01 T00910030  RH  066%=      5-min Rain = 0
KBI1 150133Z 16010KT 09/03 A302 RMK A01 T00910030  RH  065%=      5-min Rain = 0
KBI1 150134Z 16009KT 09/03 A302 RMK A01 T00910030  RH  066%=      5-min Rain = 0
KBI1 150135Z 16010KT 09/03 A302 RMK A01 T00910030  RH  066%=      5-min Rain = 0
KBI1 150136Z 16010KT 09/03 A302 RMK A01 T00910030  RH  066%=      5-min Rain = 0
KBI1 150137Z 16010KT 09/03 A302 RMK A01 T00910030  RH  066%=      5-min Rain = 0
KBI1 150138Z 16009KT 09/03 A302 RMK A01 T00900030  RH  066%=      5-min Rain = 0
KBI1 150139Z 16010KT 09/03 A302 RMK A01 T00900030  RH  066%=      5-min Rain = 0
KBI1 150140Z 16009KT 09/03 A302 RMK A01 T00890030  RH  067%=      5-min Rain = 0
KBI1 150141Z 16008KT 09/03 A3021 RMK A01 T00890030  RH  067%=      5-min Rain = 0
KBI1 150142Z 16010KT 09/03 A3021 RMK A01 T00880030  RH  067%=      5-min Rain = 0
KBI1 150143Z 16010KT 09/03 A3021 RMK A01 T00880030  RH  067%=      5-min Rain = 0
KBI1 150144Z 16008KT 09/03 A3021 RMK A01 T00890030  RH  067%=      5-min Rain = 0
KBI1 150145Z 16009KT 09/03 A3021 RMK A01 T00890030  RH  067%=      5-min Rain = 0
KBI1 150146Z 16008KT 09/03 A3021 RMK A01 T00880030  RH  067%=      5-min Rain = 0
KBI1 150147Z 16009KT 09/03 A3021 RMK A01 T00880030  RH  067%=      5-min Rain = 0
KBI1 150148Z 16010KT 09/03 A3021 RMK A01 T00880030  RH  067%=      5-min Rain = 0
KBI1 150149Z 16010KT 09/03 A3021 RMK A01 T00880030  RH  067%=      5-min Rain = 0
KBI1 150150Z 16010G15KT 09/03 A3021 RMK A01 T00880030  RH  067%=      5-min Rain = 0
KBI1 150151Z 16009KT 09/03 A3021 RMK A01 T00870030  RH  067%=      5-min Rain = 0
KBI1 150152Z 16008KT 09/03 A3021 RMK A01 T00870030  RH  067%=      5-min Rain = 0
KBI1 150153Z 16008KT 09/03 A3021 RMK A01 T00870030  RH  067%=      5-min Rain = 0
KBI1 150154Z 16009KT 09/03 A3021 RMK A01 T00870030  RH  068%=      5-min Rain = 0
KBI1 150155Z 15008KT 09/03 A3021 RMK A01 T00870030  RH  068%=      5-min Rain = 0
KBI1 150156Z 16008KT 09/03 A3021 RMK A01 T00870030  RH  067%=      5-min Rain = 0
KBI1 150157Z 16008KT 09/03 A3021 RMK A01 T00860030  RH  068%=      5-min Rain = 0
KBI1 150158Z 15007KT 09/03 A3021 RMK A01 T00860030  RH  068%=      5-min Rain = 0
KBI1 150159Z 16007KT 09/03 A3021 RMK A01 T00850030  RH  068%=      5-min Rain = 0
KBI1 150200Z 16007KT 09/03 A3021 RMK A01 T00850029  RH  068%=      5-min Rain = 0
KBI1 150201Z 16007KT 09/03 A3021 RMK A01 T00850029  RH  068%=      5-min Rain = 0
KBI1 150202Z 15009KT 08/03 A3021 RMK A01 T00840029  RH  068%=      5-min Rain = 0
KBI1 150203Z 16007KT 08/03 A3021 RMK A01 T00840029  RH  068%=      5-min Rain = 0
KBI1 150204Z 16008KT 08/03 A3021 RMK A01 T00840029  RH  068%=      5-min Rain = 0
KBI1 150205Z 16007KT 08/03 A3021 RMK A01 T00840029  RH  068%=      5-min Rain = 0
KBI1 150206Z 16008KT 09/03 A3021 RMK A01 T00850029  RH  068%=      5-min Rain = 0
KBI1 150207Z 15008KT 08/03 A3021 RMK A01 T00840029  RH  068%=      5-min Rain = 0
KBI1 150208Z 16009KT 08/03 A3021 RMK A01 T00840029  RH  068%=      5-min Rain = 0
KBI1 150209Z 16008KT 08/03 A3021 RMK A01 T00840029  RH  068%=      5-min Rain = 0
KBI1 150210Z 16010G15KT 08/03 A3021 RMK A01 T00840029  RH  069%=      5-min Rain = 0
KBI1 150211Z 16009G14KT 08/03 A3021 RMK A01 T00830029  RH  069%=      5-min Rain = 0
KBI1 150212Z 16011KT 08/03 A3021 RMK A01 T00830029  RH  069%=      5-min Rain = 0
KBI1 150213Z 16010KT 08/03 A3021 RMK A01 T00840029  RH  069%=      5-min Rain = 0
KBI1 150214Z 16013KT 08/03 A3021 RMK A01 T00840029  RH  068%=      5-min Rain = 0
KBI1 150215Z 16012G17KT 08/03 A3021 RMK A01 T00840029  RH  068%=      5-min Rain = 0
KBI1 150216Z 16011KT 09/03 A302 RMK A01 T00850029  RH  068%=      5-min Rain = 0
KBI1 150217Z 16012KT 09/03 A3021 RMK A01 T00850029  RH  068%=      5-min Rain = 0
KBI1 150218Z 16012KT 09/03 A3021 RMK A01 T00850029  RH  068%=      5-min Rain = 0
KBI1 150219Z 16011KT 09/03 A3021 RMK A01 T00850029  RH  068%=      5-min Rain = 0
KBI1 150220Z 16012KT 09/03 A3021 RMK A01 T00850029  RH  068%=      5-min Rain = 0
KBI1 150221Z 16012KT 08/03 A3021 RMK A01 T00840029  RH  068%=      5-min Rain = 0
KBI1 150222Z 16010KT 08/03 A3021 RMK A01 T00840029  RH  068%=      5-min Rain = 0
KBI1 150223Z 16011KT 08/03 A3021 RMK A01 T00830029  RH  069%=      5-min Rain = 0
KBI1 150224Z 16012KT 08/03 A3021 RMK A01 T00830029  RH  069%=      5-min Rain = 0
KBI1 150225Z 16012KT 08/03 A3021 RMK A01 T00830029  RH  069%=      5-min Rain = 0
KBI1 150226Z 16012KT 08/03 A3021 RMK A01 T00830029  RH  069%=      5-min Rain = 0
KBI1 150227Z 16013KT 08/03 A3021 RMK A01 T00820029  RH  069%=      5-min Rain = 0
KBI1 150228Z 16013KT 08/03 A3021 RMK A01 T00830029  RH  069%=      5-min Rain = 0
KBI1 150229Z 16012KT 08/03 A3021 RMK A01 T00830029  RH  069%=      5-min Rain = 0
KBI1 150230Z 16011KT 08/03 A3021 RMK A01 T00830029  RH  069%=      5-min Rain = 0
KBI1 150231Z 16011KT 08/03 A3021 RMK A01 T00830029  RH  069%=      5-min Rain = 0
KBI1 150232Z 16011G16KT 08/03 A3021 RMK A01 T00820029  RH  069%=      5-min Rain = 0
KBI1 150233Z 16013KT 08/03 A3021 RMK A01 T00820029  RH  069%=      5-min Rain = 0
KBI1 150234Z 16011KT 08/03 A3021 RMK A01 T00820029  RH  069%=      5-min Rain = 0
KBI1 150235Z 16011KT 08/03 A3021 RMK A01 T00820029  RH  069%=      5-min Rain = 0
KBI1 150236Z 16014KT 08/03 A302 RMK A01 T00810029  RH  070%=      5-min Rain = 0
KBI1 150237Z 16011KT 08/03 A302 RMK A01 T00810029  RH  070%=      5-min Rain = 0
KBI1 150238Z 16011KT 08/03 A302 RMK A01 T00810029  RH  070%=      5-min Rain = 0
KBI1 150239Z 16011KT 08/03 A302 RMK A01 T00810029  RH  070%=      5-min Rain = 0
KBI1 150240Z 16010KT 08/03 A302 RMK A01 T00810029  RH  070%=      5-min Rain = 0
KBI1 150241Z 16010KT 08/03 A302 RMK A01 T00800028  RH  070%=      5-min Rain = 0
KBI1 150242Z 16008KT 08/03 A302 RMK A01 T00800028  RH  070%=      5-min Rain = 0
KBI1 150243Z 16010G15KT 08/03 A302 RMK A01 T00800029  RH  070%=      5-min Rain = 0
KBI1 150244Z 16011KT 08/03 A302 RMK A01 T00800029  RH  070%=      5-min Rain = 0
KBI1 150245Z 16011KT 08/03 A302 RMK A01 T00790029  RH  070%=      5-min Rain = 0
KBI1 150246Z 16011KT 08/03 A302 RMK A01 T00800029  RH  070%=      5-min Rain = 0
KBI1 150247Z 16010KT 08/03 A302 RMK A01 T00800029  RH  070%=      5-min Rain = 0
KBI1 150248Z 16011G16KT 08/03 A3021 RMK A01 T00800029  RH  070%=      5-min Rain = 0
KBI1 150249Z 16010KT 08/03 A3021 RMK A01 T00790028  RH  070%=      5-min Rain = 0
KBI1 150250Z 16012KT 08/03 A3021 RMK A01 T00790028  RH  070%=      5-min Rain = 0
KBI1 150251Z 16009KT 08/03 A3021 RMK A01 T00790028  RH  070%=      5-min Rain = 0
KBI1 150252Z 16012G17KT 08/03 A3021 RMK A01 T00790028  RH  070%=      5-min Rain = 0
KBI1 150253Z 16011KT 08/03 A3021 RMK A01 T00800028  RH  070%=      5-min Rain = 0
KBI1 150254Z 16012KT 08/03 A3021 RMK A01 T00790028  RH  070%=      5-min Rain = 0
KBI1 150255Z 16011KT 08/03 A3021 RMK A01 T00800028  RH  070%=      5-min Rain = 0
KBI1 150256Z 16010KT 08/03 A3021 RMK A01 T00800028  RH  070%=      5-min Rain = 0
KBI1 150257Z 16011KT 08/03 A3021 RMK A01 T00790028  RH  070%=      5-min Rain = 0
KBI1 150258Z 16011KT 08/03 A3021 RMK A01 T00790027  RH  070%=      5-min Rain = 0
KBI1 150259Z 15013KT 08/03 A3021 RMK A01 T00790027  RH  070%=      5-min Rain = 0
KBI1 150300Z 16011KT 08/03 A3021 RMK A01 T00800028  RH  069%=      5-min Rain = 0
KBI1 150301Z 16012KT 08/03 A3021 RMK A01 T00800027  RH  069%=      5-min Rain = 0
KBI1 150302Z 16010KT 08/03 A3021 RMK A01 T00800027  RH  069%=      5-min Rain = 0
KBI1 150303Z 16010KT 08/03 A3021 RMK A01 T00800027  RH  069%=      5-min Rain = 0
KBI1 150304Z 16011G16KT 08/03 A3021 RMK A01 T00800027  RH  069%=      5-min Rain = 0
KBI1 150305Z 16016KT 08/03 A3021 RMK A01 T00800027  RH  069%=      5-min Rain = 0
KBI1 150306Z 16013KT 08/03 A3021 RMK A01 T00800027  RH  069%=      5-min Rain = 0
KBI1 150307Z 16014G20KT 08/03 A3021 RMK A01 T00800026  RH  069%=      5-min Rain = 0
KBI1 150308Z 16013G19KT 08/03 A3021 RMK A01 T00810026  RH  069%=      5-min Rain = 0
KBI1 150309Z 16016G21KT 08/03 A3021 RMK A01 T00810026  RH  069%=      5-min Rain = 0
KBI1 150310Z 16014G20KT 08/03 A3021 RMK A01 T00810027  RH  069%=      5-min Rain = 0
KBI1 150311Z 16015KT 08/03 A3021 RMK A01 T00800026  RH  069%=      5-min Rain = 0
KBI1 150312Z 16014KT 08/03 A3021 RMK A01 T00810026  RH  069%=      5-min Rain = 0
KBI1 150313Z 16013KT 08/03 A3021 RMK A01 T00800026  RH  069%=      5-min Rain = 0
KBI1 150314Z 16015G21KT 08/03 A3021 RMK A01 T00800026  RH  069%=      5-min Rain = 0
KBI1 150315Z 16013KT 08/03 A3021 RMK A01 T00800026  RH  069%=      5-min Rain = 0
KBI1 150316Z 16011KT 08/03 A3021 RMK A01 T00800026  RH  069%=      5-min Rain = 0
KBI1 150317Z 16012KT 08/03 A3021 RMK A01 T00790026  RH  069%=      5-min Rain = 0
KBI1 150318Z 16013G18KT 08/03 A3021 RMK A01 T00790026  RH  069%=      5-min Rain = 0
KBI1 150319Z 16014KT 08/03 A3021 RMK A01 T00790025  RH  069%=      5-min Rain = 0
KBI1 150320Z 15013KT 08/03 A3021 RMK A01 T00790026  RH  069%=      5-min Rain = 0
KBI1 150321Z 15013KT 08/03 A3021 RMK A01 T00790025  RH  069%=      5-min Rain = 0
KBI1 150322Z 16012KT 08/03 A3021 RMK A01 T00790026  RH  069%=      5-min Rain = 0
KBI1 150323Z 16011KT 08/03 A3021 RMK A01 T00780025  RH  069%=      5-min Rain = 0
KBI1 150324Z 16012KT 08/03 A3021 RMK A01 T00780025  RH  069%=      5-min Rain = 0
KBI1 150325Z 15010KT 08/03 A3021 RMK A01 T00780025  RH  069%=      5-min Rain = 0
KBI1 150326Z 16010KT 08/03 A3021 RMK A01 T00780025  RH  069%=      5-min Rain = 0
KBI1 150327Z 16012KT 08/03 A3021 RMK A01 T00770025  RH  070%=      5-min Rain = 0
KBI1 150328Z 16013KT 08/03 A3021 RMK A01 T00770025  RH  070%=      5-min Rain = 0
KBI1 150329Z 16011G16KT 08/03 A3021 RMK A01 T00760025  RH  070%=      5-min Rain = 0
KBI1 150330Z 16011KT 08/03 A3021 RMK A01 T00760025  RH  070%=      5-min Rain = 0
KBI1 150331Z 16011KT 08/03 A3021 RMK A01 T00760025  RH  070%=      5-min Rain = 0
KBI1 150332Z 16010KT 08/03 A3021 RMK A01 T00760025  RH  070%=      5-min Rain = 0
KBI1 150333Z 15010KT 08/03 A3021 RMK A01 T00750025  RH  070%=      5-min Rain = 0
KBI1 150334Z 16010KT 08/03 A3021 RMK A01 T00750025  RH  071%=      5-min Rain = 0
KBI1 150335Z 16013KT 08/03 A3021 RMK A01 T00750025  RH  070%=      5-min Rain = 0
KBI1 150336Z 16010KT 08/03 A3021 RMK A01 T00750025  RH  070%=      5-min Rain = 0
KBI1 150337Z 16012KT 08/03 A3021 RMK A01 T00760025  RH  070%=      5-min Rain = 0
KBI1 150338Z 15010KT 08/03 A3021 RMK A01 T00750025  RH  070%=      5-min Rain = 0
KBI1 150339Z 15011G16KT 08/03 A3021 RMK A01 T00750025  RH  070%=      5-min Rain = 0
KBI1 150340Z 16012KT 08/03 A3021 RMK A01 T00750025  RH  070%=      5-min Rain = 0
KBI1 150341Z 16011KT 08/02 A3021 RMK A01 T00750024  RH  070%=      5-min Rain = 0
KBI1 150342Z 16009KT 08/02 A3021 RMK A01 T00750024  RH  070%=      5-min Rain = 0
KBI1 150343Z 16009KT 08/02 A3021 RMK A01 T00750024  RH  070%=      5-min Rain = 0
KBI1 150344Z 16011KT 07/02 A3021 RMK A01 T00740024  RH  071%=      5-min Rain = 0
KBI1 150345Z 15010KT 07/02 A3021 RMK A01 T00740024  RH  071%=      5-min Rain = 0
KBI1 150346Z 16014KT 07/02 A302 RMK A01 T00740024  RH  070%=      5-min Rain = 0
KBI1 150347Z 15010KT 07/02 A3021 RMK A01 T00740023  RH  070%=      5-min Rain = 0
KBI1 150348Z 16013G19KT 08/02 A3021 RMK A01 T00750023  RH  070%=      5-min Rain = 0
KBI1 150349Z 15014KT 07/02 A302 RMK A01 T00740023  RH  070%=      5-min Rain = 0
KBI1 150350Z 16014KT 08/02 A302 RMK A01 T00750023  RH  069%=      5-min Rain = 0
KBI1 150351Z 16010KT 08/02 A3021 RMK A01 T00750023  RH  069%=      5-min Rain = 0
KBI1 150352Z 15009KT 08/02 A3021 RMK A01 T00750023  RH  069%=      5-min Rain = 0
KBI1 150353Z 15009KT 07/02 A3021 RMK A01 T00740023  RH  070%=      5-min Rain = 0
KBI1 150354Z 15009G14KT 07/02 A3021 RMK A01 T00740023  RH  070%=      5-min Rain = 0
KBI1 150355Z 15012KT 07/02 A302 RMK A01 T00740022  RH  070%=      5-min Rain = 0
KBI1 150356Z 16009KT 07/02 A302 RMK A01 T00740022  RH  070%=      5-min Rain = 0
KBI1 150357Z 15011KT 07/02 A302 RMK A01 T00740022  RH  070%=      5-min Rain = 0
KBI1 150358Z 16011G16KT 07/02 A302 RMK A01 T00740022  RH  070%=      5-min Rain = 0
KBI1 150359Z 16011KT 07/02 A302 RMK A01 T00740022  RH  070%=      5-min Rain = 0
KBI1 150400Z 15011G16KT 07/02 A302 RMK A01 T00740022  RH  069%=      5-min Rain = 0
KBI1 150401Z 15011KT 07/02 A302 RMK A01 T00740021  RH  069%=      5-min Rain = 0
KBI1 150402Z 16011KT 07/02 A302 RMK A01 T00740022  RH  069%=      5-min Rain = 0
KBI1 150403Z 16010KT 07/02 A302 RMK A01 T00740021  RH  069%=      5-min Rain = 0
KBI1 150404Z 15010KT 07/02 A302 RMK A01 T00740021  RH  069%=      5-min Rain = 0
KBI1 150405Z 15010KT 07/02 A302 RMK A01 T00740022  RH  069%=      5-min Rain = 0
KBI1 150406Z 15011G16KT 07/02 A302 RMK A01 T00740021  RH  069%=      5-min Rain = 0
KBI1 150407Z 15011KT 07/02 A302 RMK A01 T00730021  RH  070%=      5-min Rain = 0
KBI1 150408Z 15009KT 07/02 A302 RMK A01 T00730021  RH  070%=      5-min Rain = 0
KBI1 150409Z 14007G13KT 07/02 A302 RMK A01 T00730021  RH  070%=      5-min Rain = 0
KBI1 150410Z 15008G14KT 07/02 A302 RMK A01 T00730021  RH  070%=      5-min Rain = 0
KBI1 150411Z 15010KT 07/02 A3019 RMK A01 T00720021  RH  070%=      5-min Rain = 0
KBI1 150412Z 15007KT 07/02 A302 RMK A01 T00720021  RH  070%=      5-min Rain = 0
KBI1 150413Z 15008KT 07/02 A302 RMK A01 T00720021  RH  070%=      5-min Rain = 0
KBI1 150414Z 15011KT 07/02 A302 RMK A01 T00720021  RH  070%=      5-min Rain = 0
KBI1 150415Z 16011KT 07/02 A302 RMK A01 T00720021  RH  070%=      5-min Rain = 0
KBI1 150416Z 16011KT 07/02 A302 RMK A01 T00730021  RH  069%=      5-min Rain = 0
KBI1 150417Z 15009KT 07/02 A302 RMK A01 T00730020  RH  069%=      5-min Rain = 0
KBI1 150418Z 15008KT 07/02 A302 RMK A01 T00730020  RH  069%=      5-min Rain = 0
KBI1 150419Z 15011KT 07/02 A302 RMK A01 T00730020  RH  069%=      5-min Rain = 0
KBI1 150420Z 15009G14KT 07/02 A302 RMK A01 T00730020  RH  069%=      5-min Rain = 0
KBI1 150421Z 15010KT 07/02 A302 RMK A01 T00720020  RH  069%=      5-min Rain = 0
KBI1 150422Z 16009KT 07/02 A302 RMK A01 T00720020  RH  070%=      5-min Rain = 0
KBI1 150423Z 15008KT 07/02 A302 RMK A01 T00720020  RH  070%=      5-min Rain = 0
KBI1 150424Z 16010G15KT 07/02 A302 RMK A01 T00710020  RH  070%=      5-min Rain = 0
KBI1 150425Z 16012KT 07/02 A302 RMK A01 T00710020  RH  070%=      5-min Rain = 0
KBI1 150426Z 16010KT 07/02 A302 RMK A01 T00710020  RH  070%=      5-min Rain = 0
KBI1 150427Z 16008KT 07/02 A302 RMK A01 T00710020  RH  070%=      5-min Rain = 0
KBI1 150428Z 15010KT 07/02 A302 RMK A01 T00710020  RH  070%=      5-min Rain = 0
KBI1 150429Z 16011KT 07/02 A302 RMK A01 T00710019  RH  070%=      5-min Rain = 0
KBI1 150430Z 16012KT 07/02 A302 RMK A01 T00710019  RH  070%=      5-min Rain = 0
KBI1 150431Z 16009KT 07/02 A302 RMK A01 T00710019  RH  070%=      5-min Rain = 0
KBI1 150432Z 16012KT 07/02 A302 RMK A01 T00710019  RH  070%=      5-min Rain = 0
KBI1 150433Z 15013KT 07/02 A302 RMK A01 T00710019  RH  070%=      5-min Rain = 0
KBI1 150434Z 16011KT 07/02 A302 RMK A01 T00710019  RH  070%=      5-min Rain = 0
KBI1 150435Z 16010KT 07/02 A302 RMK A01 T00710019  RH  070%=      5-min Rain = 0
KBI1 150436Z 16012KT 07/02 A302 RMK A01 T00710019  RH  070%=      5-min Rain = 0
KBI1 150437Z 16012KT 07/02 A302 RMK A01 T00700019  RH  070%=      5-min Rain = 0
KBI1 150438Z 16010G15KT 07/02 A302 RMK A01 T00710019  RH  069%=      5-min Rain = 0
KBI1 150439Z 17013KT 07/02 A302 RMK A01 T00710019  RH  069%=      5-min Rain = 0
KBI1 150440Z 16010KT 07/02 A302 RMK A01 T00710019  RH  070%=      5-min Rain = 0
KBI1 150441Z 15011KT 07/02 A302 RMK A01 T00700019  RH  070%=      5-min Rain = 0
KBI1 150442Z 16010KT 07/02 A302 RMK A01 T00700018  RH  070%=      5-min Rain = 0
KBI1 150443Z 17009KT 07/02 A302 RMK A01 T00700019  RH  070%=      5-min Rain = 0
KBI1 150444Z 16012G19KT 07/02 A302 RMK A01 T00700019  RH  070%=      5-min Rain = 0
KBI1 150445Z 16010KT 07/02 A302 RMK A01 T00690019  RH  070%=      5-min Rain = 0
KBI1 150446Z 17012KT 07/02 A302 RMK A01 T00690019  RH  070%=      5-min Rain = 0
KBI1 150447Z 17011KT 07/02 A302 RMK A01 T00700019  RH  070%=      5-min Rain = 0
KBI1 150448Z 17009KT 07/02 A302 RMK A01 T00690019  RH  070%=      5-min Rain = 0
KBI1 150449Z 16009KT 07/02 A302 RMK A01 T00690019  RH  070%=      5-min Rain = 0
KBI1 150450Z 17011KT 07/02 A302 RMK A01 T00690019  RH  070%=      5-min Rain = 0
KBI1 150451Z 16010G15KT 07/02 A302 RMK A01 T00680019  RH  071%=      5-min Rain = 0
KBI1 150452Z 17008KT 07/02 A302 RMK A01 T00680019  RH  071%=      5-min Rain = 0
KBI1 150453Z 17011G16KT 07/02 A302 RMK A01 T00680018  RH  071%=      5-min Rain = 0
KBI1 150454Z 17011KT 07/02 A302 RMK A01 T00670018  RH  071%=      5-min Rain = 0
KBI1 150455Z 17013KT 07/02 A302 RMK A01 T00680018  RH  071%=      5-min Rain = 0
KBI1 150456Z 17011KT 07/02 A302 RMK A01 T00680018  RH  071%=      5-min Rain = 0
KBI1 150457Z 16012KT 07/02 A302 RMK A01 T00680018  RH  070%=      5-min Rain = 0
KBI1 150458Z 17011KT 07/02 A302 RMK A01 T00680018  RH  070%=      5-min Rain = 0
KBI1 150459Z 17010KT 07/02 A302 RMK A01 T00680018  RH  071%=      5-min Rain = 0
KBI1 150500Z 17012KT 07/02 A302 RMK A01 T00670018  RH  071%=      5-min Rain = 0
KBI1 150501Z 17012KT 07/02 A302 RMK A01 T00670018  RH  071%=      5-min Rain = 0
KBI1 150502Z 17010KT 07/02 A302 RMK A01 T00670018  RH  071%=      5-min Rain = 0
KBI1 150503Z 17011KT 07/02 A302 RMK A01 T00670018  RH  071%=      5-min Rain = 0
KBI1 150504Z 17010KT 07/02 A302 RMK A01 T00670018  RH  071%=      5-min Rain = 0
KBI1 150505Z 17009KT 07/02 A302 RMK A01 T00660018  RH  071%=      5-min Rain = 0
KBI1 150506Z 17013G18KT 07/02 A302 RMK A01 T00660018  RH  071%=      5-min Rain = 0
KBI1 150507Z 17012KT 07/02 A302 RMK A01 T00660018  RH  071%=      5-min Rain = 0
KBI1 150508Z 16010KT 07/02 A302 RMK A01 T00660018  RH  071%=      5-min Rain = 0
KBI1 150509Z 18011KT 07/02 A302 RMK A01 T00660018  RH  071%=      5-min Rain = 0
KBI1 150510Z 17010KT 07/02 A302 RMK A01 T00670018  RH  071%=      5-min Rain = 0
KBI1 150511Z 17010KT 07/02 A302 RMK A01 T00660018  RH  071%=      5-min Rain = 0
KBI1 150512Z 17014KT 07/02 A302 RMK A01 T00660018  RH  071%=      5-min Rain = 0
KBI1 150513Z 17012KT 07/02 A302 RMK A01 T00660018  RH  071%=      5-min Rain = 0
KBI1 150514Z 17010KT 07/02 A302 RMK A01 T00670018  RH  071%=      5-min Rain = 0
KBI1 150515Z 17009KT 07/02 A302 RMK A01 T00650018  RH  071%=      5-min Rain = 0
KBI1 150516Z 17011KT 06/02 A302 RMK A01 T00640017  RH  072%=      5-min Rain = 0
KBI1 150517Z 17011G16KT 06/02 A302 RMK A01 T00640017  RH  072%=      5-min Rain = 0
KBI1 150518Z 17012KT 06/02 A302 RMK A01 T00640018  RH  072%=      5-min Rain = 0
KBI1 150519Z 17010KT 06/02 A302 RMK A01 T00640018  RH  072%=      5-min Rain = 0
KBI1 150520Z 17011KT 06/02 A302 RMK A01 T00640017  RH  072%=      5-min Rain = 0
KBI1 150521Z 17013KT 06/02 A3019 RMK A01 T00640017  RH  072%=      5-min Rain = 0
KBI1 150522Z 17012KT 06/02 A3019 RMK A01 T00640017  RH  072%=      5-min Rain = 0
KBI1 150523Z 17011KT 06/02 A3019 RMK A01 T00640017  RH  072%=      5-min Rain = 0
KBI1 150524Z 17011KT 06/02 A3019 RMK A01 T00640018  RH  072%=      5-min Rain = 0
KBI1 150525Z 16012G18KT 06/02 A3019 RMK A01 T00640017  RH  072%=      5-min Rain = 0
KBI1 150526Z 16016KT 06/02 A3019 RMK A01 T00640018  RH  072%=      5-min Rain = 0
KBI1 150527Z 17012KT 07/02 A3019 RMK A01 T00650017  RH  072%=      5-min Rain = 0
KBI1 150528Z 17009KT 07/02 A3019 RMK A01 T00650017  RH  071%=      5-min Rain = 0
KBI1 150529Z 16011KT 06/02 A3019 RMK A01 T00640017  RH  072%=      5-min Rain = 0
KBI1 150530Z 17012KT 06/02 A3019 RMK A01 T00640017  RH  072%=      5-min Rain = 0
KBI1 150531Z 16012G19KT 06/02 A3019 RMK A01 T00640017  RH  072%=      5-min Rain = 0
KBI1 150532Z 17011KT 06/02 A3019 RMK A01 T00640017  RH  072%=      5-min Rain = 0
KBI1 150533Z 16011KT 06/02 A3019 RMK A01 T00640017  RH  072%=      5-min Rain = 0
KBI1 150534Z 16010KT 06/02 A3019 RMK A01 T00640017  RH  072%=      5-min Rain = 0
KBI1 150535Z 16012KT 06/02 A3019 RMK A01 T00630017  RH  072%=      5-min Rain = 0
KBI1 150536Z 16014KT 06/02 A3018 RMK A01 T00630017  RH  072%=      5-min Rain = 0
KBI1 150537Z 16013KT 06/02 A3019 RMK A01 T00640017  RH  072%=      5-min Rain = 0
KBI1 150538Z 16011KT 06/02 A3018 RMK A01 T00640016  RH  072%=      5-min Rain = 0
KBI1 150539Z 17011KT 06/02 A3018 RMK A01 T00640017  RH  072%=      5-min Rain = 0
KBI1 150540Z 16010KT 06/02 A3018 RMK A01 T00630016  RH  072%=      5-min Rain = 0
KBI1 150541Z 16011G16KT 06/02 A3018 RMK A01 T00640017  RH  072%=      5-min Rain = 0
KBI1 150542Z 17010KT 06/02 A3018 RMK A01 T00640017  RH  072%=      5-min Rain = 0
KBI1 150543Z 17011KT 06/02 A3018 RMK A01 T00630016  RH  072%=      5-min Rain = 0
KBI1 150544Z 16010G15KT 06/02 A3018 RMK A01 T00630016  RH  072%=      5-min Rain = 0
KBI1 150545Z 16010KT 06/02 A3018 RMK A01 T00630016  RH  072%=      5-min Rain = 0
KBI1 150546Z 16011KT 06/02 A3018 RMK A01 T00630016  RH  072%=      5-min Rain = 0
KBI1 150547Z 16011KT 06/02 A3018 RMK A01 T00620016  RH  072%=      5-min Rain = 0
KBI1 150548Z 16012KT 06/02 A3018 RMK A01 T00620016  RH  072%=      5-min Rain = 0
KBI1 150549Z 16009KT 06/02 A3018 RMK A01 T00620016  RH  072%=      5-min Rain = 0
KBI1 150550Z 16009G15KT 06/02 A3018 RMK A01 T00620016  RH  072%=      5-min Rain = 0
KBI1 150551Z 17011KT 06/02 A3018 RMK A01 T00620015  RH  072%=      5-min Rain = 0
KBI1 150552Z 17011KT 06/02 A3018 RMK A01 T00620015  RH  072%=      5-min Rain = 0
KBI1 150553Z 16010KT 06/02 A3018 RMK A01 T00620016  RH  072%=      5-min Rain = 0
KBI1 150554Z 16009KT 06/02 A3018 RMK A01 T00620016  RH  072%=      5-min Rain = 0
KBI1 150555Z 17010KT 06/02 A3018 RMK A01 T00610015  RH  072%=      5-min Rain = 0
KBI1 150556Z 17011KT 06/02 A3018 RMK A01 T00610015  RH  072%=      5-min Rain = 0
KBI1 150557Z 17011G16KT 06/02 A3018 RMK A01 T00610015  RH  072%=      5-min Rain = 0
KBI1 150558Z 17011KT 06/02 A3018 RMK A01 T00610015  RH  072%=      5-min Rain = 0
KBI1 150559Z 17012KT 06/02 A3018 RMK A01 T00610015  RH  072%=      5-min Rain = 0

Page generated in 0.1647 seconds.